LAP1507 KMIA-SGAS
Flight info
| Callsign | LAP1507 |
|---|---|
| Flight time | 7h 3m |
| Altitude | 37000 |
| Route | GWAVA2 URSUS UP406 BILSI UL795 LENAX UL417 NEFTU UP525 DAGAN/N0483F390 UP525 RCO UN420 KETIP/N0480F410 UN420 VUPIR VUPIR |
| Aircraft | B772/H-SDE2E3FGHIJ5LORVWXY/LB1D1 |
Departure
| Time | 2026-04-09 20:20 |
|---|---|
| Airport | Miami International Airport (KMIA) |
Arrival
| Time | 2026-04-10 03:24 |
|---|---|
| Airport | Silvio Pettirossi International Airport (SGAS) |
| Time | Latitude | Longitude | Altitude | Speed | Heading |
|---|---|---|---|---|---|
| 2026-04-09 19:47 | 25.79125 | -80.29158 | 21 ft | 0 kts | 210° |
| 2026-04-09 20:04 | 25.79132 | -80.29154 | 21 ft | 2 kts | 210° |
| 2026-04-09 20:04 | 25.79145 | -80.29146 | 21 ft | 2 kts | 210° |
| 2026-04-09 20:04 | 25.79158 | -80.29137 | 21 ft | 2 kts | 210° |
| 2026-04-09 20:05 | 25.79166 | -80.29132 | 21 ft | 2 kts | 209° |
| 2026-04-09 20:05 | 25.79180 | -80.29126 | 21 ft | 2 kts | 191° |
| 2026-04-09 20:05 | 25.79195 | -80.29125 | 21 ft | 2 kts | 176° |
| 2026-04-09 20:05 | 25.79210 | -80.29127 | 20 ft | 2 kts | 161° |
| 2026-04-09 20:06 | 25.79223 | -80.29134 | 20 ft | 2 kts | 146° |
| 2026-04-09 20:06 | 25.79235 | -80.29145 | 20 ft | 2 kts | 131° |
| 2026-04-09 20:06 | 25.79242 | -80.29156 | 20 ft | 1 kts | 119° |
| 2026-04-09 20:06 | 25.79243 | -80.29157 | 20 ft | 0 kts | 118° |
| 2026-04-09 20:10 | 25.79242 | -80.29157 | 20 ft | 0 kts | 118° |
| 2026-04-09 20:10 | 25.79234 | -80.29140 | 20 ft | 4 kts | 119° |
| 2026-04-09 20:10 | 25.79210 | -80.29092 | 20 ft | 8 kts | 118° |
| 2026-04-09 20:11 | 25.79182 | -80.29037 | 21 ft | 8 kts | 120° |
| 2026-04-09 20:11 | 25.79152 | -80.28978 | 21 ft | 9 kts | 120° |
| 2026-04-09 20:11 | 25.79116 | -80.28913 | 21 ft | 10 kts | 126° |
| 2026-04-09 20:11 | 25.79052 | -80.28879 | 21 ft | 11 kts | 175° |
| 2026-04-09 20:12 | 25.78971 | -80.28875 | 21 ft | 11 kts | 191° |
| 2026-04-09 20:12 | 25.78927 | -80.28953 | 21 ft | 13 kts | 253° |
| 2026-04-09 20:12 | 25.78906 | -80.29058 | 21 ft | 14 kts | 264° |
| 2026-04-09 20:12 | 25.78900 | -80.29175 | 21 ft | 16 kts | 267° |
| 2026-04-09 20:13 | 25.78894 | -80.29308 | 20 ft | 17 kts | 267° |
| 2026-04-09 20:13 | 25.78888 | -80.29447 | 19 ft | 19 kts | 267° |
| 2026-04-09 20:13 | 25.78882 | -80.29600 | 18 ft | 20 kts | 267° |
| 2026-04-09 20:13 | 25.78875 | -80.29756 | 18 ft | 20 kts | 267° |
| 2026-04-09 20:14 | 25.78869 | -80.29916 | 18 ft | 21 kts | 267° |
| 2026-04-09 20:14 | 25.78862 | -80.30080 | 18 ft | 21 kts | 268° |
| 2026-04-09 20:14 | 25.78855 | -80.30248 | 18 ft | 21 kts | 267° |
| 2026-04-09 20:14 | 25.78848 | -80.30418 | 18 ft | 22 kts | 268° |
| 2026-04-09 20:15 | 25.78841 | -80.30592 | 18 ft | 22 kts | 267° |
| 2026-04-09 20:15 | 25.78833 | -80.30769 | 18 ft | 23 kts | 268° |
| 2026-04-09 20:15 | 25.78826 | -80.30946 | 18 ft | 23 kts | 268° |
| 2026-04-09 20:15 | 25.78818 | -80.31128 | 18 ft | 23 kts | 268° |
| 2026-04-09 20:16 | 25.78811 | -80.31296 | 18 ft | 17 kts | 267° |
| 2026-04-09 20:16 | 25.78806 | -80.31407 | 18 ft | 12 kts | 261° |
| 2026-04-09 20:16 | 25.78764 | -80.31458 | 18 ft | 1 kts | 199° |
| 2026-04-09 20:16 | 25.78751 | -80.31462 | 18 ft | 0 kts | 195° |
| 2026-04-09 20:18 | 25.78746 | -80.31464 | 18 ft | 2 kts | 194° |
| 2026-04-09 20:18 | 25.78719 | -80.31469 | 18 ft | 5 kts | 187° |
| 2026-04-09 20:19 | 25.78672 | -80.31471 | 18 ft | 7 kts | 176° |
| 2026-04-09 20:19 | 25.78630 | -80.31455 | 18 ft | 5 kts | 125° |
| 2026-04-09 20:19 | 25.78619 | -80.31405 | 18 ft | 9 kts | 95° |
| 2026-04-09 20:19 | 25.78627 | -80.31091 | 18 ft | 79 kts | 87° |
| 2026-04-09 20:20 | 25.78661 | -80.30238 | 18 ft | 146 kts | 87° |
| 2026-04-09 20:20 | 25.78716 | -80.28943 | 235 ft | 182 kts | 86° |
| 2026-04-09 20:20 | 25.78759 | -80.27514 | 953 ft | 195 kts | 82° |
| 2026-04-09 20:20 | 25.78881 | -80.25999 | 1670 ft | 204 kts | 82° |
| 2026-04-09 20:21 | 25.78734 | -80.24368 | 2138 ft | 227 kts | 104° |
| 2026-04-09 20:21 | 25.77840 | -80.22808 | 2570 ft | 255 kts | 132° |
| 2026-04-09 20:21 | 25.76441 | -80.21566 | 3331 ft | 261 kts | 138° |
| 2026-04-09 20:21 | 25.74995 | -80.20337 | 4080 ft | 266 kts | 139° |
| 2026-04-09 20:22 | 25.73295 | -80.19418 | 4761 ft | 279 kts | 164° |
| 2026-04-09 20:22 | 25.71343 | -80.19145 | 5523 ft | 285 kts | 174° |
| 2026-04-09 20:22 | 25.69384 | -80.19059 | 6294 ft | 287 kts | 176° |
| 2026-04-09 20:22 | 25.67358 | -80.19062 | 7053 ft | 290 kts | 184° |
| 2026-04-09 20:23 | 25.65373 | -80.19300 | 7808 ft | 291 kts | 187° |
| 2026-04-09 20:23 | 25.63334 | -80.19567 | 8572 ft | 293 kts | 182° |
| 2026-04-09 20:23 | 25.61333 | -80.19198 | 9227 ft | 296 kts | 158° |
| 2026-04-09 20:23 | 25.59493 | -80.18170 | 9910 ft | 299 kts | 150° |
| 2026-04-09 20:24 | 25.57679 | -80.16976 | 10411 ft | 310 kts | 149° |
| 2026-04-09 20:24 | 25.55771 | -80.15704 | 10741 ft | 327 kts | 149° |
| 2026-04-09 20:24 | 25.53749 | -80.14363 | 11091 ft | 344 kts | 149° |
| 2026-04-09 20:24 | 25.51652 | -80.12979 | 11471 ft | 359 kts | 150° |
| 2026-04-09 20:25 | 25.49454 | -80.11530 | 11817 ft | 374 kts | 150° |
| 2026-04-09 20:25 | 25.47186 | -80.10036 | 12235 ft | 387 kts | 150° |
| 2026-04-09 20:25 | 25.44824 | -80.08480 | 12772 ft | 395 kts | 150° |
| 2026-04-09 20:25 | 25.42468 | -80.06928 | 13471 ft | 398 kts | 150° |
| 2026-04-09 20:26 | 25.40070 | -80.05351 | 14106 ft | 403 kts | 150° |
| 2026-04-09 20:26 | 25.37639 | -80.03752 | 14674 ft | 409 kts | 150° |
| 2026-04-09 20:26 | 25.35169 | -80.02128 | 15277 ft | 414 kts | 150° |
| 2026-04-09 20:26 | 25.32674 | -80.00488 | 15883 ft | 419 kts | 151° |
| 2026-04-09 20:27 | 25.30157 | -79.98835 | 16465 ft | 424 kts | 151° |
| 2026-04-09 20:27 | 25.27628 | -79.97176 | 17005 ft | 430 kts | 151° |
| 2026-04-09 20:27 | 25.25037 | -79.95444 | 17520 ft | 436 kts | 149° |
| 2026-04-09 20:27 | 25.22465 | -79.93613 | 18037 ft | 442 kts | 149° |
| 2026-04-09 20:28 | 25.19884 | -79.91769 | 18605 ft | 446 kts | 149° |
| 2026-04-09 20:28 | 25.17267 | -79.89902 | 19206 ft | 449 kts | 150° |
| 2026-04-09 20:28 | 25.14622 | -79.88020 | 19779 ft | 452 kts | 150° |
| 2026-04-09 20:28 | 25.11984 | -79.86146 | 20290 ft | 456 kts | 150° |
| 2026-04-09 20:29 | 25.09265 | -79.84218 | 20819 ft | 461 kts | 151° |
| 2026-04-09 20:29 | 25.06592 | -79.82324 | 21344 ft | 464 kts | 152° |
| 2026-04-09 20:29 | 25.03859 | -79.80389 | 21844 ft | 468 kts | 152° |
| 2026-04-09 20:29 | 25.01075 | -79.78420 | 22330 ft | 472 kts | 152° |
| 2026-04-09 20:30 | 24.98303 | -79.76461 | 22838 ft | 476 kts | 152° |
| 2026-04-09 20:30 | 24.95483 | -79.74470 | 23350 ft | 479 kts | 152° |
| 2026-04-09 20:30 | 24.92657 | -79.72475 | 23831 ft | 484 kts | 152° |
| 2026-04-09 20:30 | 24.89816 | -79.70471 | 24385 ft | 486 kts | 152° |
| 2026-04-09 20:31 | 24.86961 | -79.68458 | 24932 ft | 488 kts | 152° |
| 2026-04-09 20:31 | 24.84085 | -79.66429 | 25423 ft | 491 kts | 152° |
| 2026-04-09 20:31 | 24.81221 | -79.64410 | 25884 ft | 494 kts | 152° |
| 2026-04-09 20:31 | 24.78286 | -79.62344 | 26353 ft | 497 kts | 152° |
| 2026-04-09 20:32 | 24.75378 | -79.60296 | 26807 ft | 500 kts | 152° |
| 2026-04-09 20:32 | 24.72440 | -79.58229 | 27266 ft | 503 kts | 153° |
| 2026-04-09 20:32 | 24.69468 | -79.56139 | 27732 ft | 505 kts | 153° |
| 2026-04-09 20:32 | 24.66497 | -79.54051 | 28157 ft | 507 kts | 153° |
| 2026-04-09 20:33 | 24.63530 | -79.51967 | 28585 ft | 509 kts | 153° |
| 2026-04-09 20:33 | 24.60547 | -79.49873 | 28986 ft | 512 kts | 153° |
| 2026-04-09 20:33 | 24.57515 | -79.47746 | 29374 ft | 515 kts | 153° |
| 2026-04-09 20:33 | 24.54494 | -79.45628 | 29757 ft | 517 kts | 153° |
| 2026-04-09 20:34 | 24.51438 | -79.43487 | 30092 ft | 521 kts | 153° |
| 2026-04-09 20:34 | 24.48361 | -79.41332 | 30501 ft | 522 kts | 153° |
| 2026-04-09 20:34 | 24.45288 | -79.39181 | 30995 ft | 522 kts | 152° |
| 2026-04-09 20:34 | 24.42217 | -79.37031 | 31473 ft | 522 kts | 153° |
| 2026-04-09 20:35 | 24.39146 | -79.34884 | 31894 ft | 522 kts | 153° |
| 2026-04-09 20:35 | 24.36098 | -79.32755 | 32302 ft | 523 kts | 153° |
| 2026-04-09 20:35 | 24.33018 | -79.30604 | 32682 ft | 523 kts | 153° |
| 2026-04-09 20:35 | 24.29938 | -79.28454 | 33038 ft | 525 kts | 153° |
| 2026-04-09 20:36 | 24.26895 | -79.26279 | 33484 ft | 525 kts | 152° |
| 2026-04-09 20:36 | 24.23819 | -79.24065 | 33968 ft | 524 kts | 152° |
| 2026-04-09 20:36 | 24.20791 | -79.21884 | 34509 ft | 521 kts | 152° |
| 2026-04-09 20:36 | 24.17764 | -79.19706 | 35130 ft | 517 kts | 153° |
| 2026-04-09 20:37 | 24.14756 | -79.17545 | 35762 ft | 512 kts | 153° |
| 2026-04-09 20:37 | 24.11793 | -79.15418 | 36235 ft | 509 kts | 153° |
| 2026-04-09 20:37 | 24.08839 | -79.13300 | 36572 ft | 509 kts | 153° |
| 2026-04-09 20:37 | 24.05858 | -79.11166 | 36822 ft | 510 kts | 153° |
| 2026-04-09 20:38 | 24.02843 | -79.09069 | 36988 ft | 507 kts | 157° |
| 2026-04-09 20:38 | 23.99695 | -79.07421 | 36988 ft | 498 kts | 166° |
| 2026-04-09 20:38 | 23.96451 | -79.06329 | 36982 ft | 486 kts | 175° |
| 2026-04-09 20:38 | 23.93107 | -79.05608 | 36990 ft | 484 kts | 176° |
| 2026-04-09 20:39 | 23.86495 | -79.04295 | 36994 ft | 484 kts | 177° |
| 2026-04-09 20:39 | 23.79860 | -79.02982 | 37003 ft | 481 kts | 177° |
| 2026-04-09 20:40 | 23.73210 | -79.01668 | 36998 ft | 483 kts | 177° |
| 2026-04-09 20:40 | 23.66588 | -79.00360 | 37000 ft | 484 kts | 177° |
| 2026-04-09 20:41 | 23.59972 | -78.99055 | 37003 ft | 483 kts | 177° |
| 2026-04-09 20:41 | 23.53313 | -78.97741 | 37006 ft | 483 kts | 177° |
| 2026-04-09 20:42 | 23.46718 | -78.96441 | 37007 ft | 481 kts | 177° |
| 2026-04-09 20:42 | 23.40112 | -78.95142 | 37008 ft | 483 kts | 176° |
| 2026-04-09 20:43 | 23.33488 | -78.93839 | 37006 ft | 482 kts | 176° |
| 2026-04-09 20:43 | 23.26870 | -78.92539 | 37005 ft | 480 kts | 176° |
| 2026-04-09 20:44 | 23.20357 | -78.90740 | 37004 ft | 492 kts | 164° |
| 2026-04-09 20:44 | 23.14338 | -78.86879 | 37015 ft | 507 kts | 149° |
| 2026-04-09 20:45 | 23.08730 | -78.82218 | 37007 ft | 510 kts | 148° |
| 2026-04-09 20:45 | 23.03083 | -78.77518 | 37008 ft | 511 kts | 148° |
| 2026-04-09 20:46 | 22.97428 | -78.72823 | 37004 ft | 509 kts | 148° |
| 2026-04-09 20:46 | 22.91840 | -78.68192 | 37006 ft | 506 kts | 148° |
| 2026-04-09 20:47 | 22.86175 | -78.63508 | 37002 ft | 509 kts | 148° |
| 2026-04-09 20:47 | 22.80528 | -78.58843 | 36994 ft | 509 kts | 148° |
| 2026-04-09 20:48 | 22.74915 | -78.54198 | 36992 ft | 509 kts | 148° |
| 2026-04-09 20:48 | 22.69287 | -78.49506 | 36989 ft | 508 kts | 148° |
| 2026-04-09 20:49 | 22.63668 | -78.44831 | 36988 ft | 510 kts | 147° |
| 2026-04-09 20:49 | 22.58057 | -78.40166 | 36991 ft | 509 kts | 148° |
| 2026-04-09 20:50 | 22.52419 | -78.35484 | 36989 ft | 508 kts | 147° |
| 2026-04-09 20:50 | 22.46799 | -78.30804 | 36977 ft | 509 kts | 148° |
| 2026-04-09 20:51 | 22.41209 | -78.26142 | 36974 ft | 507 kts | 148° |
| 2026-04-09 20:51 | 22.35584 | -78.21458 | 36973 ft | 510 kts | 148° |
| 2026-04-09 20:52 | 22.30043 | -78.16849 | 36973 ft | 508 kts | 148° |
| 2026-04-09 20:52 | 22.24478 | -78.12225 | 36970 ft | 508 kts | 148° |
| 2026-04-09 20:53 | 22.18933 | -78.07622 | 36971 ft | 509 kts | 148° |
| 2026-04-09 20:53 | 22.13298 | -78.02949 | 36970 ft | 508 kts | 148° |
| 2026-04-09 20:54 | 22.07714 | -77.98325 | 36967 ft | 509 kts | 147° |
| 2026-04-09 20:54 | 22.02065 | -77.93650 | 36964 ft | 507 kts | 147° |
| 2026-04-09 20:55 | 21.96471 | -77.89027 | 36967 ft | 508 kts | 147° |
| 2026-04-09 20:55 | 21.90707 | -77.84648 | 36964 ft | 501 kts | 157° |
| 2026-04-09 20:56 | 21.84301 | -77.82036 | 36972 ft | 488 kts | 170° |
| 2026-04-09 20:56 | 21.77732 | -77.80101 | 36967 ft | 488 kts | 171° |
| 2026-04-09 20:57 | 21.71182 | -77.78188 | 36970 ft | 486 kts | 171° |
| 2026-04-09 20:57 | 21.64629 | -77.76280 | 36974 ft | 486 kts | 171° |
| 2026-04-09 20:58 | 21.58102 | -77.74385 | 36978 ft | 486 kts | 171° |
| 2026-04-09 20:58 | 21.51572 | -77.72490 | 36978 ft | 482 kts | 171° |
| 2026-04-09 20:59 | 21.45075 | -77.70609 | 36984 ft | 485 kts | 171° |
| 2026-04-09 20:59 | 21.38550 | -77.68720 | 36980 ft | 482 kts | 171° |
| 2026-04-09 21:00 | 21.32087 | -77.66852 | 36980 ft | 484 kts | 171° |
| 2026-04-09 21:01 | 21.22290 | -77.64024 | 36973 ft | 481 kts | 171° |
| 2026-04-09 21:01 | 21.15809 | -77.62154 | 36968 ft | 481 kts | 171° |
| 2026-04-09 21:02 | 21.09361 | -77.60295 | 36966 ft | 479 kts | 171° |
| 2026-04-09 21:02 | 21.02875 | -77.58430 | 36961 ft | 480 kts | 171° |
| 2026-04-09 21:03 | 20.96404 | -77.56568 | 36968 ft | 481 kts | 171° |
| 2026-04-09 21:03 | 20.89963 | -77.54716 | 36969 ft | 479 kts | 171° |
| 2026-04-09 21:04 | 20.83485 | -77.52855 | 36971 ft | 477 kts | 171° |
| 2026-04-09 21:04 | 20.77092 | -77.51020 | 36978 ft | 478 kts | 171° |
| 2026-04-09 21:05 | 20.70619 | -77.49165 | 36972 ft | 478 kts | 171° |
| 2026-04-09 21:05 | 20.64207 | -77.47327 | 36973 ft | 477 kts | 172° |
| 2026-04-09 21:06 | 20.57752 | -77.45486 | 36974 ft | 475 kts | 173° |
| 2026-04-09 21:06 | 20.51323 | -77.44791 | 36975 ft | 462 kts | 187° |
| 2026-04-09 21:07 | 20.44849 | -77.44947 | 36976 ft | 460 kts | 187° |
| 2026-04-09 21:07 | 20.38425 | -77.45114 | 36973 ft | 462 kts | 188° |
| 2026-04-09 21:08 | 20.32004 | -77.45280 | 36975 ft | 462 kts | 187° |
| 2026-04-09 21:08 | 20.25549 | -77.45444 | 36972 ft | 460 kts | 188° |
| 2026-04-09 21:09 | 20.19134 | -77.45608 | 36979 ft | 459 kts | 187° |
| 2026-04-09 21:09 | 20.12722 | -77.45773 | 36990 ft | 461 kts | 188° |
| 2026-04-09 21:10 | 20.06313 | -77.45935 | 36993 ft | 461 kts | 187° |
| 2026-04-09 21:10 | 19.99881 | -77.46098 | 37000 ft | 460 kts | 188° |
| 2026-04-09 21:11 | 19.93468 | -77.46261 | 37000 ft | 459 kts | 188° |
| 2026-04-09 21:11 | 19.87077 | -77.46423 | 36998 ft | 460 kts | 188° |
| 2026-04-09 21:12 | 19.80647 | -77.46587 | 36993 ft | 459 kts | 188° |
| 2026-04-09 21:12 | 19.74263 | -77.46748 | 36982 ft | 458 kts | 188° |
| 2026-04-09 21:13 | 19.67884 | -77.46910 | 36982 ft | 458 kts | 187° |
| 2026-04-09 21:13 | 19.61493 | -77.47071 | 36986 ft | 457 kts | 188° |
| 2026-04-09 21:14 | 19.55107 | -77.47234 | 36981 ft | 458 kts | 187° |
| 2026-04-09 21:14 | 19.48700 | -77.47048 | 36985 ft | 467 kts | 178° |
| 2026-04-09 21:15 | 19.42329 | -77.45322 | 36977 ft | 475 kts | 170° |
| 2026-04-09 21:15 | 19.35999 | -77.43323 | 36979 ft | 472 kts | 170° |
| 2026-04-09 21:16 | 19.29650 | -77.41325 | 36978 ft | 474 kts | 170° |
| 2026-04-09 21:16 | 19.23343 | -77.39344 | 36975 ft | 475 kts | 170° |
| 2026-04-09 21:17 | 19.16978 | -77.37346 | 36975 ft | 472 kts | 171° |
| 2026-04-09 21:17 | 19.10623 | -77.35356 | 36972 ft | 474 kts | 171° |
| 2026-04-09 21:18 | 19.04306 | -77.33378 | 36954 ft | 471 kts | 171° |
| 2026-04-09 21:18 | 18.98007 | -77.31409 | 36956 ft | 473 kts | 171° |
| 2026-04-09 21:19 | 18.91690 | -77.29436 | 36953 ft | 472 kts | 171° |
| 2026-04-09 21:19 | 18.85401 | -77.27473 | 36961 ft | 472 kts | 171° |
| 2026-04-09 21:20 | 18.79089 | -77.25504 | 36958 ft | 470 kts | 171° |
| 2026-04-09 21:20 | 18.72752 | -77.23530 | 36957 ft | 474 kts | 171° |
| 2026-04-09 21:21 | 18.66414 | -77.21556 | 36959 ft | 472 kts | 171° |
| 2026-04-09 21:21 | 18.60130 | -77.19600 | 36959 ft | 470 kts | 171° |
| 2026-04-09 21:22 | 18.53826 | -77.17641 | 36955 ft | 473 kts | 171° |
| 2026-04-09 21:22 | 18.47510 | -77.15678 | 36944 ft | 473 kts | 171° |
| 2026-04-09 21:23 | 18.41180 | -77.13711 | 36964 ft | 469 kts | 171° |
| 2026-04-09 21:23 | 18.34877 | -77.11758 | 36986 ft | 473 kts | 171° |
| 2026-04-09 21:24 | 18.28595 | -77.09809 | 36999 ft | 469 kts | 171° |
| 2026-04-09 21:24 | 18.22260 | -77.07849 | 37005 ft | 473 kts | 171° |
| 2026-04-09 21:25 | 18.15952 | -77.05896 | 36986 ft | 473 kts | 171° |
| 2026-04-09 21:25 | 18.09598 | -77.03931 | 36965 ft | 473 kts | 171° |
| 2026-04-09 21:26 | 18.03294 | -77.01982 | 36954 ft | 472 kts | 171° |
| 2026-04-09 21:26 | 17.96945 | -77.00022 | 36932 ft | 473 kts | 171° |
| 2026-04-09 21:27 | 17.90662 | -76.98082 | 36939 ft | 469 kts | 171° |
| 2026-04-09 21:27 | 17.84309 | -76.96125 | 36951 ft | 473 kts | 171° |
| 2026-04-09 21:28 | 17.77991 | -76.94177 | 36955 ft | 472 kts | 171° |
| 2026-04-09 21:28 | 17.71651 | -76.92227 | 36950 ft | 475 kts | 171° |
| 2026-04-09 21:29 | 17.65322 | -76.90279 | 36944 ft | 473 kts | 171° |
| 2026-04-09 21:29 | 17.59024 | -76.88344 | 36942 ft | 473 kts | 171° |
| 2026-04-09 21:30 | 17.52670 | -76.86392 | 36937 ft | 472 kts | 171° |
| 2026-04-09 21:30 | 17.46351 | -76.84452 | 36938 ft | 472 kts | 171° |
| 2026-04-09 21:31 | 17.39991 | -76.82502 | 36937 ft | 472 kts | 171° |
| 2026-04-09 21:31 | 17.33674 | -76.80566 | 36943 ft | 472 kts | 171° |
| 2026-04-09 21:32 | 17.27347 | -76.78629 | 36945 ft | 471 kts | 171° |
| 2026-04-09 21:32 | 17.21041 | -76.76699 | 36944 ft | 474 kts | 171° |
| 2026-04-09 21:33 | 17.14672 | -76.74751 | 36942 ft | 471 kts | 170° |
| 2026-04-09 21:33 | 17.08366 | -76.72824 | 36940 ft | 474 kts | 171° |
| 2026-04-09 21:34 | 17.02024 | -76.70887 | 36942 ft | 472 kts | 170° |
| 2026-04-09 21:34 | 16.95701 | -76.68958 | 36940 ft | 473 kts | 171° |
| 2026-04-09 21:35 | 16.89365 | -76.67025 | 36937 ft | 472 kts | 170° |
| 2026-04-09 21:35 | 16.83003 | -76.65087 | 36941 ft | 473 kts | 170° |
| 2026-04-09 21:36 | 16.76687 | -76.63162 | 36944 ft | 472 kts | 170° |
| 2026-04-09 21:36 | 16.70390 | -76.61247 | 36943 ft | 473 kts | 170° |
| 2026-04-09 21:37 | 16.64020 | -76.59310 | 36939 ft | 475 kts | 170° |
| 2026-04-09 21:37 | 16.57683 | -76.57383 | 36937 ft | 472 kts | 170° |
| 2026-04-09 21:38 | 16.51317 | -76.55450 | 36937 ft | 474 kts | 170° |
| 2026-04-09 21:38 | 16.44972 | -76.53524 | 36938 ft | 475 kts | 170° |
| 2026-04-09 21:39 | 16.38643 | -76.51604 | 36938 ft | 474 kts | 170° |
| 2026-04-09 21:39 | 16.32316 | -76.49685 | 36936 ft | 471 kts | 170° |
| 2026-04-09 21:40 | 16.25967 | -76.47762 | 36935 ft | 472 kts | 169° |
| 2026-04-09 21:40 | 16.19649 | -76.45850 | 36932 ft | 473 kts | 170° |
| 2026-04-09 21:41 | 16.13320 | -76.43934 | 36932 ft | 473 kts | 169° |
| 2026-04-09 21:41 | 16.06943 | -76.42006 | 36930 ft | 472 kts | 169° |
| 2026-04-09 21:42 | 16.00593 | -76.40088 | 36930 ft | 473 kts | 169° |
| 2026-04-09 21:42 | 15.94299 | -76.38187 | 36925 ft | 472 kts | 169° |
| 2026-04-09 21:43 | 15.87949 | -76.36271 | 36930 ft | 473 kts | 169° |
| 2026-04-09 21:43 | 15.81588 | -76.34354 | 36908 ft | 472 kts | 170° |
| 2026-04-09 21:44 | 15.75268 | -76.32449 | 36902 ft | 473 kts | 170° |
| 2026-04-09 21:44 | 15.68965 | -76.30550 | 36896 ft | 472 kts | 169° |
| 2026-04-09 21:45 | 15.62632 | -76.28644 | 36894 ft | 470 kts | 170° |
| 2026-04-09 21:45 | 15.56333 | -76.26750 | 36891 ft | 472 kts | 169° |
| 2026-04-09 21:46 | 15.50017 | -76.24851 | 36895 ft | 471 kts | 169° |
| 2026-04-09 21:46 | 15.43654 | -76.22941 | 36900 ft | 473 kts | 169° |
| 2026-04-09 21:47 | 15.37347 | -76.21047 | 36902 ft | 471 kts | 169° |
| 2026-04-09 21:47 | 15.31058 | -76.19160 | 36900 ft | 472 kts | 169° |
| 2026-04-09 21:48 | 15.24732 | -76.17264 | 36898 ft | 471 kts | 169° |
| 2026-04-09 21:48 | 15.18423 | -76.15373 | 36900 ft | 470 kts | 169° |
| 2026-04-09 21:49 | 15.12090 | -76.13477 | 36898 ft | 472 kts | 169° |
| 2026-04-09 21:49 | 15.05778 | -76.11588 | 36901 ft | 471 kts | 169° |
| 2026-04-09 21:50 | 14.99497 | -76.09709 | 36897 ft | 471 kts | 169° |
| 2026-04-09 21:50 | 14.93205 | -76.07776 | 36898 ft | 470 kts | 168° |
| 2026-04-09 21:51 | 14.86914 | -76.05837 | 36902 ft | 472 kts | 168° |
| 2026-04-09 21:51 | 14.80619 | -76.03899 | 36905 ft | 470 kts | 168° |
| 2026-04-09 21:52 | 14.74279 | -76.01951 | 36903 ft | 473 kts | 168° |
| 2026-04-09 21:52 | 14.67974 | -76.00013 | 36897 ft | 470 kts | 168° |
| 2026-04-09 21:53 | 14.61661 | -75.98076 | 36897 ft | 472 kts | 168° |
| 2026-04-09 21:53 | 14.55355 | -75.96140 | 36897 ft | 470 kts | 168° |
| 2026-04-09 21:54 | 14.49081 | -75.94218 | 36890 ft | 470 kts | 168° |
| 2026-04-09 21:54 | 14.42777 | -75.92286 | 36881 ft | 470 kts | 168° |
| 2026-04-09 21:55 | 14.36450 | -75.90349 | 36879 ft | 471 kts | 168° |
| 2026-04-09 21:55 | 14.30188 | -75.88432 | 36881 ft | 473 kts | 168° |
| 2026-04-09 21:56 | 14.23823 | -75.86486 | 36876 ft | 472 kts | 168° |
| 2026-04-09 21:56 | 14.17539 | -75.84565 | 36871 ft | 472 kts | 167° |
| 2026-04-09 21:57 | 14.11180 | -75.82622 | 36870 ft | 472 kts | 167° |
| 2026-04-09 21:57 | 14.04906 | -75.80707 | 36863 ft | 470 kts | 167° |
| 2026-04-09 21:58 | 13.98629 | -75.78792 | 36862 ft | 471 kts | 167° |
| 2026-04-09 21:58 | 13.92309 | -75.76865 | 36860 ft | 471 kts | 167° |
| 2026-04-09 21:59 | 13.85953 | -75.74927 | 36872 ft | 474 kts | 167° |
| 2026-04-09 21:59 | 13.79658 | -75.73010 | 36876 ft | 472 kts | 167° |
| 2026-04-09 22:00 | 13.73309 | -75.71077 | 36875 ft | 472 kts | 167° |
| 2026-04-09 22:00 | 13.67037 | -75.69168 | 36877 ft | 472 kts | 167° |
| 2026-04-09 22:01 | 13.60687 | -75.67238 | 36875 ft | 472 kts | 167° |
| 2026-04-09 22:01 | 13.54403 | -75.65327 | 36876 ft | 472 kts | 167° |
| 2026-04-09 22:02 | 13.48080 | -75.63407 | 36875 ft | 472 kts | 167° |
| 2026-04-09 22:02 | 13.41733 | -75.61481 | 36875 ft | 472 kts | 167° |
| 2026-04-09 22:03 | 13.35420 | -75.59564 | 36869 ft | 471 kts | 167° |
| 2026-04-09 22:03 | 13.29103 | -75.57649 | 36862 ft | 473 kts | 167° |
| 2026-04-09 22:04 | 13.22785 | -75.55734 | 36866 ft | 471 kts | 167° |
| 2026-04-09 22:04 | 13.16448 | -75.53815 | 36859 ft | 473 kts | 167° |
| 2026-04-09 22:05 | 13.10127 | -75.51901 | 36851 ft | 473 kts | 167° |
| 2026-04-09 22:05 | 13.00607 | -75.49021 | 36846 ft | 475 kts | 167° |
| 2026-04-09 22:06 | 12.94258 | -75.47101 | 36846 ft | 472 kts | 167° |
| 2026-04-09 22:06 | 12.87931 | -75.45189 | 36845 ft | 473 kts | 167° |
| 2026-04-09 22:07 | 12.81634 | -75.43287 | 36845 ft | 472 kts | 167° |
| 2026-04-09 22:07 | 12.75290 | -75.41372 | 36840 ft | 472 kts | 167° |
| 2026-04-09 22:08 | 12.68961 | -75.39462 | 36843 ft | 472 kts | 167° |
| 2026-04-09 22:08 | 12.62599 | -75.37544 | 36833 ft | 474 kts | 166° |
| 2026-04-09 22:09 | 12.56287 | -75.35641 | 36836 ft | 473 kts | 166° |
| 2026-04-09 22:09 | 12.49954 | -75.33733 | 36824 ft | 473 kts | 167° |
| 2026-04-09 22:10 | 12.43622 | -75.31827 | 36825 ft | 473 kts | 167° |
| 2026-04-09 22:10 | 12.37294 | -75.29923 | 36824 ft | 474 kts | 167° |
| 2026-04-09 22:11 | 12.30917 | -75.28005 | 36821 ft | 473 kts | 166° |
| 2026-04-09 22:11 | 12.24571 | -75.26096 | 36822 ft | 472 kts | 166° |
| 2026-04-09 22:12 | 12.18256 | -75.24199 | 36817 ft | 473 kts | 166° |
| 2026-04-09 22:12 | 12.11918 | -75.22295 | 36816 ft | 473 kts | 166° |
| 2026-04-09 22:13 | 12.05544 | -75.20382 | 36808 ft | 473 kts | 166° |
| 2026-04-09 22:13 | 11.99171 | -75.18469 | 36800 ft | 473 kts | 166° |
| 2026-04-09 22:14 | 11.92841 | -75.16572 | 36797 ft | 474 kts | 166° |
| 2026-04-09 22:14 | 11.86482 | -75.14665 | 36807 ft | 475 kts | 166° |
| 2026-04-09 22:15 | 11.80143 | -75.12766 | 36802 ft | 473 kts | 166° |
| 2026-04-09 22:15 | 11.73800 | -75.10867 | 36801 ft | 474 kts | 166° |
| 2026-04-09 22:16 | 11.67417 | -75.08956 | 36806 ft | 474 kts | 166° |
| 2026-04-09 22:16 | 11.61027 | -75.07171 | 36806 ft | 473 kts | 168° |
| 2026-04-09 22:17 | 11.54617 | -75.05521 | 36808 ft | 474 kts | 168° |
| 2026-04-09 22:17 | 11.48172 | -75.03854 | 36799 ft | 475 kts | 168° |
| 2026-04-09 22:18 | 11.41761 | -75.02191 | 36798 ft | 474 kts | 168° |
| 2026-04-09 22:18 | 11.35329 | -75.00520 | 36796 ft | 474 kts | 168° |
| 2026-04-09 22:19 | 11.28925 | -74.98855 | 36799 ft | 475 kts | 168° |
| 2026-04-09 22:19 | 11.22517 | -74.97189 | 36792 ft | 474 kts | 168° |
| 2026-04-09 22:20 | 11.16097 | -74.95520 | 36794 ft | 474 kts | 168° |
| 2026-04-09 22:20 | 11.09660 | -74.93848 | 36784 ft | 475 kts | 168° |
| 2026-04-09 22:21 | 11.03253 | -74.92184 | 36783 ft | 475 kts | 168° |
| 2026-04-09 22:21 | 10.96838 | -74.90517 | 36795 ft | 475 kts | 167° |
| 2026-04-09 22:22 | 10.90410 | -74.88850 | 36805 ft | 480 kts | 167° |
| 2026-04-09 22:22 | 10.83820 | -74.87141 | 36819 ft | 489 kts | 167° |
| 2026-04-09 22:23 | 10.77165 | -74.85390 | 36822 ft | 496 kts | 166° |
| 2026-04-09 22:23 | 10.70498 | -74.83488 | 36810 ft | 498 kts | 166° |
| 2026-04-09 22:24 | 10.63829 | -74.81585 | 36821 ft | 498 kts | 166° |
| 2026-04-09 22:24 | 10.57105 | -74.79673 | 36809 ft | 497 kts | 166° |
| 2026-04-09 22:25 | 10.50446 | -74.77782 | 36809 ft | 498 kts | 166° |
| 2026-04-09 22:25 | 10.43766 | -74.75889 | 36802 ft | 497 kts | 166° |
| 2026-04-09 22:26 | 10.37084 | -74.73996 | 36806 ft | 497 kts | 166° |
| 2026-04-09 22:26 | 10.30382 | -74.72098 | 36811 ft | 498 kts | 166° |
| 2026-04-09 22:27 | 10.23714 | -74.70212 | 36809 ft | 496 kts | 166° |
| 2026-04-09 22:27 | 10.17027 | -74.68321 | 36800 ft | 496 kts | 166° |
| 2026-04-09 22:28 | 10.10381 | -74.66442 | 36794 ft | 497 kts | 166° |
| 2026-04-09 22:28 | 10.03687 | -74.64552 | 36791 ft | 497 kts | 166° |
| 2026-04-09 22:29 | 9.96998 | -74.62663 | 36781 ft | 497 kts | 166° |
| 2026-04-09 22:29 | 9.90330 | -74.60780 | 36779 ft | 497 kts | 166° |
| 2026-04-09 22:30 | 9.83674 | -74.58902 | 36788 ft | 498 kts | 166° |
| 2026-04-09 22:30 | 9.76971 | -74.57011 | 36786 ft | 497 kts | 166° |
| 2026-04-09 22:31 | 9.70299 | -74.55130 | 36785 ft | 497 kts | 166° |
| 2026-04-09 22:31 | 9.63612 | -74.53246 | 36781 ft | 497 kts | 166° |
| 2026-04-09 22:32 | 9.56935 | -74.51365 | 36776 ft | 497 kts | 166° |
| 2026-04-09 22:32 | 9.50235 | -74.49478 | 36770 ft | 498 kts | 166° |
| 2026-04-09 22:33 | 9.43545 | -74.47595 | 36772 ft | 498 kts | 166° |
| 2026-04-09 22:33 | 9.36864 | -74.45716 | 36769 ft | 499 kts | 166° |
| 2026-04-09 22:34 | 9.30128 | -74.43822 | 36769 ft | 498 kts | 166° |
| 2026-04-09 22:34 | 9.23469 | -74.41949 | 36763 ft | 498 kts | 166° |
| 2026-04-09 22:35 | 9.16756 | -74.40063 | 36769 ft | 499 kts | 166° |
| 2026-04-09 22:35 | 9.10043 | -74.38178 | 36770 ft | 498 kts | 166° |
| 2026-04-09 22:36 | 9.03324 | -74.36291 | 36765 ft | 500 kts | 166° |
| 2026-04-09 22:36 | 8.96640 | -74.34415 | 36765 ft | 499 kts | 166° |
| 2026-04-09 22:37 | 8.89934 | -74.32533 | 36758 ft | 500 kts | 166° |
| 2026-04-09 22:37 | 8.83181 | -74.30639 | 36767 ft | 500 kts | 166° |
| 2026-04-09 22:38 | 8.76491 | -74.28764 | 36768 ft | 498 kts | 166° |
| 2026-04-09 22:38 | 8.69748 | -74.26874 | 36778 ft | 499 kts | 166° |
| 2026-04-09 22:39 | 8.63034 | -74.24992 | 36776 ft | 499 kts | 166° |
| 2026-04-09 22:39 | 8.56343 | -74.23119 | 36789 ft | 499 kts | 166° |
| 2026-04-09 22:40 | 8.49628 | -74.21239 | 36797 ft | 500 kts | 166° |
| 2026-04-09 22:40 | 8.42883 | -74.19351 | 36824 ft | 500 kts | 166° |
| 2026-04-09 22:41 | 8.36135 | -74.17464 | 36864 ft | 500 kts | 165° |
| 2026-04-09 22:41 | 8.29430 | -74.15588 | 36895 ft | 500 kts | 166° |
| 2026-04-09 22:42 | 8.22653 | -74.13694 | 36915 ft | 501 kts | 165° |
| 2026-04-09 22:42 | 8.15941 | -74.11819 | 36920 ft | 501 kts | 166° |
| 2026-04-09 22:43 | 8.09158 | -74.09924 | 36915 ft | 501 kts | 166° |
| 2026-04-09 22:43 | 8.02468 | -74.08056 | 36917 ft | 502 kts | 166° |
| 2026-04-09 22:44 | 7.95675 | -74.06163 | 36898 ft | 501 kts | 166° |
| 2026-04-09 22:44 | 7.89048 | -74.04330 | 36874 ft | 480 kts | 166° |
| 2026-04-09 22:45 | 7.82683 | -74.02573 | 36853 ft | 474 kts | 166° |
| 2026-04-09 22:45 | 7.76251 | -74.00796 | 36821 ft | 476 kts | 165° |
| 2026-04-09 22:46 | 7.69901 | -73.99043 | 36812 ft | 473 kts | 165° |
| 2026-04-09 22:46 | 7.63492 | -73.97272 | 36816 ft | 475 kts | 165° |
| 2026-04-09 22:47 | 7.57114 | -73.95512 | 36812 ft | 475 kts | 165° |
| 2026-04-09 22:47 | 7.50755 | -73.93757 | 36811 ft | 474 kts | 165° |
| 2026-04-09 22:48 | 7.44359 | -73.91992 | 36795 ft | 474 kts | 165° |
| 2026-04-09 22:48 | 7.38003 | -73.90239 | 36815 ft | 472 kts | 165° |
| 2026-04-09 22:49 | 7.31654 | -73.88488 | 36805 ft | 474 kts | 165° |
| 2026-04-09 22:49 | 7.25247 | -73.86722 | 36810 ft | 474 kts | 165° |
| 2026-04-09 22:50 | 7.18865 | -73.84963 | 36802 ft | 473 kts | 165° |
| 2026-04-09 22:50 | 7.12519 | -73.83215 | 36810 ft | 474 kts | 165° |
| 2026-04-09 22:51 | 7.06135 | -73.81456 | 36800 ft | 474 kts | 165° |
| 2026-04-09 22:51 | 6.99750 | -73.79725 | 36809 ft | 475 kts | 166° |
| 2026-04-09 22:52 | 6.93338 | -73.78059 | 36820 ft | 473 kts | 166° |
| 2026-04-09 22:52 | 6.87008 | -73.76414 | 36847 ft | 474 kts | 166° |
| 2026-04-09 22:53 | 6.80591 | -73.74744 | 36851 ft | 474 kts | 166° |
| 2026-04-09 22:53 | 6.74247 | -73.73092 | 36880 ft | 475 kts | 166° |
| 2026-04-09 22:54 | 6.67835 | -73.71422 | 36924 ft | 475 kts | 166° |
| 2026-04-09 22:54 | 6.61393 | -73.69744 | 36967 ft | 475 kts | 166° |
| 2026-04-09 22:55 | 6.54984 | -73.68076 | 36999 ft | 475 kts | 166° |
| 2026-04-09 22:55 | 6.48713 | -73.66443 | 37036 ft | 475 kts | 166° |
| 2026-04-09 22:56 | 6.42263 | -73.64764 | 37096 ft | 475 kts | 166° |
| 2026-04-09 22:56 | 6.35865 | -73.63100 | 37120 ft | 475 kts | 166° |
| 2026-04-09 22:57 | 6.29445 | -73.61430 | 37172 ft | 475 kts | 166° |
| 2026-04-09 22:57 | 6.23046 | -73.59766 | 37249 ft | 475 kts | 166° |
| 2026-04-09 22:58 | 6.16591 | -73.58087 | 37258 ft | 476 kts | 166° |
| 2026-04-09 22:58 | 6.10196 | -73.56425 | 37281 ft | 477 kts | 166° |
| 2026-04-09 22:59 | 6.03725 | -73.54743 | 37322 ft | 478 kts | 166° |
| 2026-04-09 22:59 | 5.97309 | -73.53076 | 37324 ft | 477 kts | 166° |
| 2026-04-09 23:00 | 5.90893 | -73.51410 | 37346 ft | 476 kts | 166° |
| 2026-04-09 23:00 | 5.84557 | -73.49764 | 37364 ft | 477 kts | 166° |
| 2026-04-09 23:01 | 5.78110 | -73.48090 | 37408 ft | 476 kts | 166° |
| 2026-04-09 23:01 | 5.71712 | -73.46430 | 37417 ft | 477 kts | 166° |
| 2026-04-09 23:02 | 5.65276 | -73.44760 | 37440 ft | 477 kts | 166° |
| 2026-04-09 23:02 | 5.58824 | -73.43085 | 37441 ft | 477 kts | 166° |
| 2026-04-09 23:03 | 5.52412 | -73.41423 | 37453 ft | 477 kts | 166° |
| 2026-04-09 23:03 | 5.45978 | -73.39754 | 37454 ft | 477 kts | 166° |
| 2026-04-09 23:04 | 5.39501 | -73.38075 | 37449 ft | 477 kts | 166° |
| 2026-04-09 23:04 | 5.33052 | -73.36403 | 37443 ft | 477 kts | 165° |
| 2026-04-09 23:05 | 5.26641 | -73.34742 | 37431 ft | 477 kts | 166° |
| 2026-04-09 23:05 | 5.20211 | -73.33076 | 37404 ft | 476 kts | 166° |
| 2026-04-09 23:06 | 5.13734 | -73.31398 | 37380 ft | 477 kts | 166° |
| 2026-04-09 23:06 | 5.07295 | -73.29730 | 37333 ft | 478 kts | 165° |
| 2026-04-09 23:07 | 4.97599 | -73.27219 | 37281 ft | 477 kts | 165° |
| 2026-04-09 23:08 | 4.91126 | -73.25544 | 37222 ft | 478 kts | 165° |
| 2026-04-09 23:08 | 4.84656 | -73.23869 | 37143 ft | 478 kts | 165° |
| 2026-04-09 23:09 | 4.78227 | -73.22206 | 37108 ft | 479 kts | 165° |
| 2026-04-09 23:09 | 4.71724 | -73.20523 | 37085 ft | 478 kts | 165° |
| 2026-04-09 23:10 | 4.65255 | -73.18850 | 37046 ft | 478 kts | 165° |
| 2026-04-09 23:10 | 4.58769 | -73.17173 | 37038 ft | 479 kts | 165° |
| 2026-04-09 23:11 | 4.52264 | -73.15491 | 37037 ft | 480 kts | 165° |
| 2026-04-09 23:11 | 4.45788 | -73.13817 | 37039 ft | 478 kts | 165° |
| 2026-04-09 23:12 | 4.39299 | -73.12140 | 37012 ft | 479 kts | 165° |
| 2026-04-09 23:12 | 4.32830 | -73.10468 | 36966 ft | 479 kts | 165° |
| 2026-04-09 23:13 | 4.26370 | -73.08799 | 36975 ft | 480 kts | 165° |
| 2026-04-09 23:13 | 4.19826 | -73.07108 | 36956 ft | 482 kts | 165° |
| 2026-04-09 23:14 | 4.13353 | -73.05437 | 36940 ft | 482 kts | 165° |
| 2026-04-09 23:14 | 4.06792 | -73.03742 | 36935 ft | 483 kts | 165° |
| 2026-04-09 23:15 | 4.00289 | -73.02062 | 36910 ft | 480 kts | 165° |
| 2026-04-09 23:15 | 3.93807 | -73.00379 | 36913 ft | 479 kts | 165° |
| 2026-04-09 23:16 | 3.87308 | -72.98693 | 36909 ft | 481 kts | 165° |
| 2026-04-09 23:16 | 3.80771 | -72.96997 | 36911 ft | 481 kts | 165° |
| 2026-04-09 23:17 | 3.74311 | -72.95322 | 36914 ft | 481 kts | 165° |
| 2026-04-09 23:17 | 3.67788 | -72.93630 | 36922 ft | 480 kts | 165° |
| 2026-04-09 23:18 | 3.61269 | -72.91940 | 36936 ft | 481 kts | 165° |
| 2026-04-09 23:18 | 3.54815 | -72.90268 | 36932 ft | 479 kts | 165° |
| 2026-04-09 23:19 | 3.48311 | -72.88582 | 36933 ft | 479 kts | 165° |
| 2026-04-09 23:19 | 3.41845 | -72.86907 | 36932 ft | 478 kts | 165° |
| 2026-04-09 23:20 | 3.35363 | -72.85227 | 36930 ft | 479 kts | 165° |
| 2026-04-09 23:20 | 3.28859 | -72.83543 | 36930 ft | 479 kts | 165° |
| 2026-04-09 23:21 | 3.22370 | -72.81862 | 36930 ft | 481 kts | 165° |
| 2026-04-09 23:21 | 3.15873 | -72.80179 | 36931 ft | 480 kts | 165° |
| 2026-04-09 23:22 | 3.09384 | -72.78499 | 36934 ft | 480 kts | 165° |
| 2026-04-09 23:22 | 3.02886 | -72.76817 | 36945 ft | 482 kts | 165° |
| 2026-04-09 23:22 | 2.99617 | -72.75970 | 37149 ft | 485 kts | 165° |
| 2026-04-09 23:23 | 2.96337 | -72.75120 | 37610 ft | 483 kts | 165° |
| 2026-04-09 23:23 | 2.93079 | -72.74277 | 38125 ft | 479 kts | 165° |
| 2026-04-09 23:23 | 2.89867 | -72.73446 | 38488 ft | 478 kts | 165° |
| 2026-04-09 23:23 | 2.86636 | -72.72610 | 38833 ft | 477 kts | 165° |
| 2026-04-09 23:24 | 2.83440 | -72.71783 | 38938 ft | 479 kts | 165° |
| 2026-04-09 23:24 | 2.76944 | -72.70102 | 38935 ft | 477 kts | 165° |
| 2026-04-09 23:25 | 2.70477 | -72.68428 | 38935 ft | 478 kts | 165° |
| 2026-04-09 23:25 | 2.64032 | -72.66760 | 38933 ft | 479 kts | 165° |
| 2026-04-09 23:26 | 2.57584 | -72.65093 | 38934 ft | 478 kts | 165° |
| 2026-04-09 23:26 | 2.51215 | -72.63165 | 38943 ft | 476 kts | 158° |
| 2026-04-09 23:27 | 2.45010 | -72.60691 | 38935 ft | 477 kts | 158° |
| 2026-04-09 23:27 | 2.38816 | -72.58212 | 38936 ft | 476 kts | 158° |
| 2026-04-09 23:28 | 2.32680 | -72.55759 | 38939 ft | 476 kts | 158° |
| 2026-04-09 23:28 | 2.26464 | -72.53275 | 38940 ft | 476 kts | 158° |
| 2026-04-09 23:29 | 2.20310 | -72.50816 | 38945 ft | 475 kts | 158° |
| 2026-04-09 23:29 | 2.14284 | -72.48410 | 38945 ft | 478 kts | 158° |
| 2026-04-09 23:30 | 2.08079 | -72.45933 | 38943 ft | 476 kts | 158° |
| 2026-04-09 23:30 | 2.01937 | -72.43481 | 38941 ft | 475 kts | 158° |
| 2026-04-09 23:31 | 1.95751 | -72.41012 | 38940 ft | 475 kts | 158° |
| 2026-04-09 23:31 | 1.89619 | -72.38563 | 38941 ft | 476 kts | 158° |
| 2026-04-09 23:32 | 1.83445 | -72.36100 | 38941 ft | 474 kts | 158° |
| 2026-04-09 23:32 | 1.77303 | -72.33649 | 38942 ft | 475 kts | 158° |
| 2026-04-09 23:33 | 1.71145 | -72.31191 | 38941 ft | 476 kts | 158° |
| 2026-04-09 23:33 | 1.64982 | -72.28732 | 38937 ft | 477 kts | 158° |
| 2026-04-09 23:34 | 1.58796 | -72.26264 | 38939 ft | 476 kts | 158° |
| 2026-04-09 23:34 | 1.52599 | -72.23792 | 38933 ft | 477 kts | 158° |
| 2026-04-09 23:35 | 1.46403 | -72.21320 | 38930 ft | 476 kts | 158° |
| 2026-04-09 23:35 | 1.40246 | -72.18864 | 38930 ft | 478 kts | 158° |
| 2026-04-09 23:36 | 1.34039 | -72.16388 | 38929 ft | 476 kts | 158° |
| 2026-04-09 23:36 | 1.27850 | -72.13919 | 38932 ft | 476 kts | 158° |
| 2026-04-09 23:37 | 1.21682 | -72.11459 | 38929 ft | 476 kts | 158° |
| 2026-04-09 23:37 | 1.15478 | -72.08985 | 38931 ft | 477 kts | 158° |
| 2026-04-09 23:38 | 1.09292 | -72.06518 | 38935 ft | 478 kts | 158° |
| 2026-04-09 23:38 | 1.03111 | -72.04054 | 38939 ft | 477 kts | 158° |
| 2026-04-09 23:39 | 0.96902 | -72.01577 | 38941 ft | 478 kts | 158° |
| 2026-04-09 23:39 | 0.90726 | -71.99115 | 38938 ft | 478 kts | 158° |
| 2026-04-09 23:40 | 0.84517 | -71.96639 | 38935 ft | 478 kts | 158° |
| 2026-04-09 23:40 | 0.78335 | -71.94173 | 38934 ft | 477 kts | 158° |
| 2026-04-09 23:41 | 0.72124 | -71.91697 | 38930 ft | 479 kts | 158° |
| 2026-04-09 23:41 | 0.65902 | -71.89216 | 38932 ft | 478 kts | 158° |
| 2026-04-09 23:42 | 0.59743 | -71.86761 | 38931 ft | 478 kts | 158° |
| 2026-04-09 23:42 | 0.53494 | -71.84270 | 38927 ft | 479 kts | 158° |
| 2026-04-09 23:43 | 0.47292 | -71.81797 | 38924 ft | 477 kts | 158° |
| 2026-04-09 23:43 | 0.41140 | -71.79344 | 38924 ft | 477 kts | 158° |
| 2026-04-09 23:44 | 0.34903 | -71.76858 | 38923 ft | 478 kts | 158° |
| 2026-04-09 23:44 | 0.28717 | -71.74392 | 38920 ft | 478 kts | 158° |
| 2026-04-09 23:45 | 0.22518 | -71.71910 | 38918 ft | 478 kts | 158° |
| 2026-04-09 23:45 | 0.16315 | -71.69425 | 38919 ft | 479 kts | 158° |
| 2026-04-09 23:46 | 0.10071 | -71.66924 | 38920 ft | 478 kts | 158° |
| 2026-04-09 23:46 | 0.03881 | -71.64445 | 38920 ft | 478 kts | 158° |
| 2026-04-09 23:47 | -0.02317 | -71.61962 | 38922 ft | 478 kts | 158° |
| 2026-04-09 23:47 | -0.08531 | -71.59473 | 38916 ft | 479 kts | 158° |
| 2026-04-09 23:48 | -0.14748 | -71.56984 | 38916 ft | 479 kts | 158° |
| 2026-04-09 23:48 | -0.20940 | -71.54504 | 38910 ft | 480 kts | 158° |
| 2026-04-09 23:49 | -0.27175 | -71.52007 | 38906 ft | 478 kts | 158° |
| 2026-04-09 23:49 | -0.33375 | -71.49523 | 38906 ft | 479 kts | 158° |
| 2026-04-09 23:50 | -0.39564 | -71.47044 | 38907 ft | 478 kts | 158° |
| 2026-04-09 23:50 | -0.45748 | -71.44568 | 38908 ft | 477 kts | 158° |
| 2026-04-09 23:51 | -0.51964 | -71.42078 | 38906 ft | 479 kts | 158° |
| 2026-04-09 23:51 | -0.58167 | -71.39593 | 38904 ft | 478 kts | 158° |
| 2026-04-09 23:52 | -0.64317 | -71.37130 | 38903 ft | 478 kts | 157° |
| 2026-04-09 23:52 | -0.70547 | -71.34635 | 38899 ft | 479 kts | 158° |
| 2026-04-09 23:53 | -0.76744 | -71.32153 | 38906 ft | 478 kts | 157° |
| 2026-04-09 23:53 | -0.82941 | -71.29671 | 38912 ft | 477 kts | 158° |
| 2026-04-09 23:54 | -0.89128 | -71.27192 | 38915 ft | 477 kts | 158° |
| 2026-04-09 23:54 | -0.95286 | -71.24725 | 38915 ft | 479 kts | 158° |
| 2026-04-09 23:55 | -1.01495 | -71.22237 | 38915 ft | 478 kts | 157° |
| 2026-04-09 23:55 | -1.07720 | -71.19743 | 38912 ft | 479 kts | 157° |
| 2026-04-09 23:56 | -1.13928 | -71.17256 | 38916 ft | 479 kts | 157° |
| 2026-04-09 23:56 | -1.20105 | -71.14781 | 38916 ft | 479 kts | 157° |
| 2026-04-09 23:57 | -1.26348 | -71.12279 | 38914 ft | 478 kts | 157° |
| 2026-04-09 23:57 | -1.32499 | -71.09815 | 38916 ft | 477 kts | 157° |
| 2026-04-09 23:58 | -1.38708 | -71.07327 | 38913 ft | 478 kts | 157° |
| 2026-04-09 23:58 | -1.44906 | -71.04843 | 38911 ft | 477 kts | 157° |
| 2026-04-09 23:59 | -1.51093 | -71.02363 | 38914 ft | 479 kts | 157° |
| 2026-04-09 23:59 | -1.57339 | -70.99860 | 38916 ft | 479 kts | 157° |
| 2026-04-10 00:00 | -1.63562 | -70.97366 | 38915 ft | 479 kts | 157° |
| 2026-04-10 00:00 | -1.69727 | -70.94894 | 38914 ft | 479 kts | 157° |
| 2026-04-10 00:01 | -1.75971 | -70.92391 | 38910 ft | 478 kts | 157° |
| 2026-04-10 00:01 | -1.82153 | -70.89912 | 38911 ft | 478 kts | 157° |
| 2026-04-10 00:02 | -1.88324 | -70.87438 | 38916 ft | 479 kts | 157° |
| 2026-04-10 00:02 | -1.94570 | -70.84933 | 38913 ft | 480 kts | 157° |
| 2026-04-10 00:03 | -2.00744 | -70.82358 | 38916 ft | 478 kts | 156° |
| 2026-04-10 00:03 | -2.06862 | -70.79709 | 38913 ft | 478 kts | 156° |
| 2026-04-10 00:04 | -2.12956 | -70.77076 | 38915 ft | 478 kts | 156° |
| 2026-04-10 00:04 | -2.19125 | -70.74416 | 38917 ft | 478 kts | 156° |
| 2026-04-10 00:05 | -2.25233 | -70.71783 | 38917 ft | 478 kts | 156° |
| 2026-04-10 00:05 | -2.31376 | -70.69138 | 38918 ft | 478 kts | 156° |
| 2026-04-10 00:06 | -2.37530 | -70.66573 | 38919 ft | 478 kts | 157° |
| 2026-04-10 00:06 | -2.43731 | -70.64110 | 38918 ft | 478 kts | 157° |
| 2026-04-10 00:07 | -2.49958 | -70.61630 | 38916 ft | 478 kts | 157° |
| 2026-04-10 00:07 | -2.56150 | -70.59159 | 38913 ft | 478 kts | 157° |
| 2026-04-10 00:08 | -2.62356 | -70.56680 | 38912 ft | 479 kts | 157° |
| 2026-04-10 00:08 | -2.68549 | -70.54205 | 38914 ft | 480 kts | 157° |
| 2026-04-10 00:09 | -2.74763 | -70.51720 | 38915 ft | 479 kts | 157° |
| 2026-04-10 00:09 | -2.81023 | -70.49216 | 38920 ft | 480 kts | 157° |
| 2026-04-10 00:10 | -2.87241 | -70.46728 | 38921 ft | 479 kts | 157° |
| 2026-04-10 00:10 | -2.93431 | -70.44251 | 38918 ft | 478 kts | 157° |
| 2026-04-10 00:11 | -2.99645 | -70.41765 | 38910 ft | 479 kts | 156° |
| 2026-04-10 00:11 | -3.05839 | -70.39285 | 38899 ft | 478 kts | 156° |
| 2026-04-10 00:12 | -3.12015 | -70.36813 | 38902 ft | 479 kts | 156° |
| 2026-04-10 00:12 | -3.18239 | -70.34322 | 38905 ft | 480 kts | 157° |
| 2026-04-10 00:13 | -3.24459 | -70.31829 | 38907 ft | 479 kts | 157° |
| 2026-04-10 00:13 | -3.30665 | -70.29339 | 38916 ft | 479 kts | 157° |
| 2026-04-10 00:14 | -3.36871 | -70.26848 | 38913 ft | 478 kts | 156° |
| 2026-04-10 00:14 | -3.43050 | -70.24368 | 38916 ft | 478 kts | 156° |
| 2026-04-10 00:15 | -3.49311 | -70.21854 | 38916 ft | 480 kts | 157° |
| 2026-04-10 00:15 | -3.58617 | -70.18118 | 38915 ft | 480 kts | 156° |
| 2026-04-10 00:16 | -3.64832 | -70.15623 | 38917 ft | 479 kts | 157° |
| 2026-04-10 00:16 | -3.71033 | -70.13133 | 38914 ft | 479 kts | 156° |
| 2026-04-10 00:17 | -3.77259 | -70.10632 | 38916 ft | 480 kts | 157° |
| 2026-04-10 00:17 | -3.83449 | -70.08144 | 38915 ft | 480 kts | 157° |
| 2026-04-10 00:18 | -3.89702 | -70.05632 | 38916 ft | 481 kts | 157° |
| 2026-04-10 00:18 | -3.95925 | -70.03131 | 38909 ft | 481 kts | 157° |
| 2026-04-10 00:19 | -4.02197 | -70.00610 | 38907 ft | 480 kts | 157° |
| 2026-04-10 00:19 | -4.08405 | -69.98114 | 38904 ft | 480 kts | 157° |
| 2026-04-10 00:20 | -4.14600 | -69.95624 | 38900 ft | 479 kts | 157° |
| 2026-04-10 00:20 | -4.20822 | -69.93157 | 38898 ft | 479 kts | 159° |
| 2026-04-10 00:21 | -4.27183 | -69.90929 | 38903 ft | 480 kts | 159° |
| 2026-04-10 00:21 | -4.33474 | -69.88726 | 38909 ft | 480 kts | 159° |
| 2026-04-10 00:22 | -4.39804 | -69.86500 | 38903 ft | 480 kts | 159° |
| 2026-04-10 00:22 | -4.46121 | -69.84272 | 38901 ft | 479 kts | 159° |
| 2026-04-10 00:23 | -4.52465 | -69.82032 | 38906 ft | 478 kts | 159° |
| 2026-04-10 00:23 | -4.58752 | -69.79810 | 38911 ft | 477 kts | 159° |
| 2026-04-10 00:24 | -4.65029 | -69.77594 | 38912 ft | 478 kts | 159° |
| 2026-04-10 00:24 | -4.71326 | -69.75372 | 38911 ft | 478 kts | 159° |
| 2026-04-10 00:25 | -4.77612 | -69.73154 | 38912 ft | 478 kts | 159° |
| 2026-04-10 00:25 | -4.83914 | -69.70930 | 38911 ft | 477 kts | 159° |
| 2026-04-10 00:26 | -4.90205 | -69.68708 | 38911 ft | 476 kts | 159° |
| 2026-04-10 00:26 | -4.96468 | -69.66487 | 38911 ft | 476 kts | 159° |
| 2026-04-10 00:27 | -5.02719 | -69.64250 | 38913 ft | 477 kts | 159° |
| 2026-04-10 00:27 | -5.09003 | -69.62002 | 38912 ft | 477 kts | 159° |
| 2026-04-10 00:28 | -5.15292 | -69.59752 | 38910 ft | 478 kts | 159° |
| 2026-04-10 00:28 | -5.21613 | -69.57490 | 38912 ft | 479 kts | 159° |
| 2026-04-10 00:29 | -5.27920 | -69.55233 | 38908 ft | 479 kts | 159° |
| 2026-04-10 00:29 | -5.34211 | -69.52982 | 38913 ft | 479 kts | 159° |
| 2026-04-10 00:30 | -5.40484 | -69.50736 | 38911 ft | 478 kts | 159° |
| 2026-04-10 00:30 | -5.46776 | -69.48483 | 38917 ft | 479 kts | 159° |
| 2026-04-10 00:31 | -5.53106 | -69.46217 | 38921 ft | 480 kts | 159° |
| 2026-04-10 00:31 | -5.59443 | -69.43946 | 38925 ft | 481 kts | 159° |
| 2026-04-10 00:32 | -5.65763 | -69.41682 | 38925 ft | 482 kts | 159° |
| 2026-04-10 00:32 | -5.72085 | -69.39417 | 38921 ft | 481 kts | 159° |
| 2026-04-10 00:33 | -5.78399 | -69.37154 | 38920 ft | 481 kts | 159° |
| 2026-04-10 00:33 | -5.84725 | -69.34885 | 38910 ft | 481 kts | 159° |
| 2026-04-10 00:34 | -5.91064 | -69.32612 | 38903 ft | 481 kts | 159° |
| 2026-04-10 00:34 | -5.97414 | -69.30334 | 38899 ft | 481 kts | 159° |
| 2026-04-10 00:35 | -6.03726 | -69.28069 | 38898 ft | 483 kts | 159° |
| 2026-04-10 00:35 | -6.10092 | -69.25784 | 38906 ft | 484 kts | 159° |
| 2026-04-10 00:36 | -6.16437 | -69.23507 | 38912 ft | 484 kts | 159° |
| 2026-04-10 00:36 | -6.22828 | -69.21212 | 38911 ft | 483 kts | 159° |
| 2026-04-10 00:37 | -6.29185 | -69.18917 | 38908 ft | 483 kts | 159° |
| 2026-04-10 00:37 | -6.35532 | -69.16596 | 38909 ft | 484 kts | 159° |
| 2026-04-10 00:38 | -6.41881 | -69.14275 | 38910 ft | 485 kts | 159° |
| 2026-04-10 00:38 | -6.48247 | -69.11947 | 38907 ft | 486 kts | 159° |
| 2026-04-10 00:39 | -6.54622 | -69.09616 | 38906 ft | 487 kts | 159° |
| 2026-04-10 00:39 | -6.60988 | -69.07288 | 38905 ft | 486 kts | 159° |
| 2026-04-10 00:40 | -6.67370 | -69.04954 | 38904 ft | 486 kts | 159° |
| 2026-04-10 00:40 | -6.73763 | -69.02639 | 38902 ft | 486 kts | 160° |
| 2026-04-10 00:41 | -6.80188 | -69.00358 | 38900 ft | 486 kts | 160° |
| 2026-04-10 00:41 | -6.86574 | -68.98087 | 38898 ft | 488 kts | 160° |
| 2026-04-10 00:42 | -6.92995 | -68.95803 | 38898 ft | 488 kts | 160° |
| 2026-04-10 00:42 | -6.99448 | -68.93505 | 38906 ft | 487 kts | 160° |
| 2026-04-10 00:43 | -7.05826 | -68.91233 | 38914 ft | 486 kts | 160° |
| 2026-04-10 00:43 | -7.12223 | -68.88953 | 38914 ft | 485 kts | 160° |
| 2026-04-10 00:44 | -7.18643 | -68.86665 | 38915 ft | 485 kts | 160° |
| 2026-04-10 00:44 | -7.25019 | -68.84391 | 38915 ft | 485 kts | 160° |
| 2026-04-10 00:45 | -7.31375 | -68.82124 | 38915 ft | 485 kts | 160° |
| 2026-04-10 00:45 | -7.37778 | -68.79839 | 38915 ft | 485 kts | 160° |
| 2026-04-10 00:46 | -7.44183 | -68.77552 | 38915 ft | 486 kts | 160° |
| 2026-04-10 00:46 | -7.50554 | -68.75277 | 38915 ft | 485 kts | 160° |
| 2026-04-10 00:47 | -7.56944 | -68.72995 | 38915 ft | 484 kts | 160° |
| 2026-04-10 00:47 | -7.63298 | -68.70725 | 38916 ft | 484 kts | 160° |
| 2026-04-10 00:48 | -7.69664 | -68.68449 | 38917 ft | 484 kts | 159° |
| 2026-04-10 00:48 | -7.76016 | -68.66159 | 38917 ft | 484 kts | 159° |
| 2026-04-10 00:49 | -7.82397 | -68.63856 | 38916 ft | 484 kts | 159° |
| 2026-04-10 00:49 | -7.88744 | -68.61564 | 38916 ft | 483 kts | 159° |
| 2026-04-10 00:50 | -7.95077 | -68.59277 | 38915 ft | 483 kts | 159° |
| 2026-04-10 00:50 | -8.01453 | -68.56974 | 38915 ft | 482 kts | 159° |
| 2026-04-10 00:51 | -8.07766 | -68.54693 | 38916 ft | 482 kts | 159° |
| 2026-04-10 00:51 | -8.14127 | -68.52393 | 38917 ft | 482 kts | 159° |
| 2026-04-10 00:52 | -8.20438 | -68.50112 | 38915 ft | 483 kts | 159° |
| 2026-04-10 00:52 | -8.26801 | -68.47810 | 38918 ft | 483 kts | 159° |
| 2026-04-10 00:53 | -8.33135 | -68.45519 | 38919 ft | 483 kts | 159° |
| 2026-04-10 00:53 | -8.39490 | -68.43219 | 38920 ft | 483 kts | 159° |
| 2026-04-10 00:54 | -8.45883 | -68.40904 | 38926 ft | 484 kts | 159° |
| 2026-04-10 00:54 | -8.52215 | -68.38612 | 38922 ft | 484 kts | 159° |
| 2026-04-10 00:55 | -8.58587 | -68.36303 | 38916 ft | 484 kts | 159° |
| 2026-04-10 00:55 | -8.64955 | -68.33995 | 38918 ft | 484 kts | 159° |
| 2026-04-10 00:56 | -8.71327 | -68.31684 | 38918 ft | 484 kts | 159° |
| 2026-04-10 00:56 | -8.77688 | -68.29378 | 38920 ft | 485 kts | 159° |
| 2026-04-10 00:57 | -8.84052 | -68.27068 | 38920 ft | 484 kts | 159° |
| 2026-04-10 00:57 | -8.90440 | -68.24750 | 38921 ft | 485 kts | 159° |
| 2026-04-10 00:58 | -8.96784 | -68.22446 | 38927 ft | 485 kts | 159° |
| 2026-04-10 00:58 | -9.03176 | -68.20125 | 38927 ft | 486 kts | 159° |
| 2026-04-10 00:59 | -9.09555 | -68.17807 | 38926 ft | 485 kts | 159° |
| 2026-04-10 00:59 | -9.15945 | -68.15484 | 38925 ft | 485 kts | 159° |
| 2026-04-10 01:00 | -9.22298 | -68.13174 | 38925 ft | 485 kts | 159° |
| 2026-04-10 01:00 | -9.28693 | -68.10908 | 38928 ft | 485 kts | 160° |
| 2026-04-10 01:01 | -9.35109 | -68.08700 | 38926 ft | 484 kts | 160° |
| 2026-04-10 01:01 | -9.41506 | -68.06493 | 38927 ft | 485 kts | 160° |
| 2026-04-10 01:02 | -9.47922 | -68.04277 | 38926 ft | 483 kts | 160° |
| 2026-04-10 01:02 | -9.54302 | -68.02071 | 38927 ft | 483 kts | 160° |
| 2026-04-10 01:03 | -9.60665 | -67.99869 | 38927 ft | 483 kts | 160° |
| 2026-04-10 01:03 | -9.67040 | -67.97662 | 38927 ft | 482 kts | 159° |
| 2026-04-10 01:04 | -9.73393 | -67.95462 | 38925 ft | 481 kts | 159° |
| 2026-04-10 01:04 | -9.79750 | -67.93259 | 38925 ft | 482 kts | 159° |
| 2026-04-10 01:05 | -9.86105 | -67.91035 | 38918 ft | 482 kts | 156° |
| 2026-04-10 01:05 | -9.92028 | -67.87848 | 38923 ft | 478 kts | 147° |
| 2026-04-10 01:06 | -9.97742 | -67.84365 | 38923 ft | 478 kts | 147° |
| 2026-04-10 01:06 | -10.03449 | -67.80885 | 38924 ft | 478 kts | 147° |
| 2026-04-10 01:07 | -10.09134 | -67.77418 | 38923 ft | 478 kts | 147° |
| 2026-04-10 01:07 | -10.14874 | -67.73915 | 38926 ft | 479 kts | 147° |
| 2026-04-10 01:08 | -10.20604 | -67.70418 | 38926 ft | 479 kts | 147° |
| 2026-04-10 01:08 | -10.26358 | -67.66906 | 38938 ft | 480 kts | 147° |
| 2026-04-10 01:09 | -10.32082 | -67.63411 | 38945 ft | 481 kts | 147° |
| 2026-04-10 01:09 | -10.37815 | -67.59908 | 38946 ft | 481 kts | 147° |
| 2026-04-10 01:10 | -10.43591 | -67.56378 | 38947 ft | 481 kts | 147° |
| 2026-04-10 01:10 | -10.49332 | -67.52867 | 38947 ft | 483 kts | 147° |
| 2026-04-10 01:11 | -10.55132 | -67.49418 | 38946 ft | 484 kts | 148° |
| 2026-04-10 01:11 | -10.60958 | -67.45971 | 38945 ft | 483 kts | 148° |
| 2026-04-10 01:12 | -10.66810 | -67.42504 | 38942 ft | 483 kts | 148° |
| 2026-04-10 01:12 | -10.72618 | -67.39059 | 38944 ft | 483 kts | 148° |
| 2026-04-10 01:13 | -10.78442 | -67.35603 | 38944 ft | 482 kts | 148° |
| 2026-04-10 01:13 | -10.84233 | -67.32163 | 38942 ft | 482 kts | 148° |
| 2026-04-10 01:14 | -10.90056 | -67.28702 | 38944 ft | 482 kts | 148° |
| 2026-04-10 01:14 | -10.95861 | -67.25252 | 38942 ft | 479 kts | 148° |
| 2026-04-10 01:15 | -11.01527 | -67.21881 | 38941 ft | 479 kts | 148° |
| 2026-04-10 01:15 | -11.07276 | -67.18460 | 38944 ft | 480 kts | 148° |
| 2026-04-10 01:16 | -11.13086 | -67.15001 | 38940 ft | 481 kts | 148° |
| 2026-04-10 01:17 | -11.21722 | -67.09856 | 38945 ft | 480 kts | 148° |
| 2026-04-10 01:17 | -11.27530 | -67.06394 | 38940 ft | 480 kts | 148° |
| 2026-04-10 01:18 | -11.33305 | -67.02950 | 38944 ft | 479 kts | 148° |
| 2026-04-10 01:18 | -11.39072 | -66.99509 | 38940 ft | 480 kts | 148° |
| 2026-04-10 01:19 | -11.44876 | -66.96045 | 38941 ft | 482 kts | 148° |
| 2026-04-10 01:19 | -11.50660 | -66.92590 | 38941 ft | 482 kts | 148° |
| 2026-04-10 01:20 | -11.56442 | -66.89136 | 38941 ft | 482 kts | 148° |
| 2026-04-10 01:20 | -11.62230 | -66.85676 | 38941 ft | 481 kts | 148° |
| 2026-04-10 01:21 | -11.68027 | -66.82208 | 38941 ft | 482 kts | 148° |
| 2026-04-10 01:21 | -11.73790 | -66.78760 | 38943 ft | 482 kts | 148° |
| 2026-04-10 01:22 | -11.79617 | -66.75272 | 38946 ft | 482 kts | 148° |
| 2026-04-10 01:22 | -11.85423 | -66.71793 | 38946 ft | 482 kts | 148° |
| 2026-04-10 01:23 | -11.91161 | -66.68356 | 38952 ft | 482 kts | 148° |
| 2026-04-10 01:23 | -11.96976 | -66.64869 | 38955 ft | 482 kts | 148° |
| 2026-04-10 01:24 | -12.02767 | -66.61395 | 38962 ft | 483 kts | 148° |
| 2026-04-10 01:24 | -12.08577 | -66.57908 | 38968 ft | 483 kts | 148° |
| 2026-04-10 01:25 | -12.14367 | -66.54432 | 38965 ft | 482 kts | 148° |
| 2026-04-10 01:25 | -12.20191 | -66.50932 | 38960 ft | 483 kts | 148° |
| 2026-04-10 01:26 | -12.25968 | -66.47460 | 38959 ft | 483 kts | 148° |
| 2026-04-10 01:26 | -12.31774 | -66.43968 | 38958 ft | 483 kts | 148° |
| 2026-04-10 01:27 | -12.37586 | -66.40472 | 38951 ft | 483 kts | 148° |
| 2026-04-10 01:27 | -12.43398 | -66.36972 | 38953 ft | 484 kts | 148° |
| 2026-04-10 01:28 | -12.49205 | -66.33474 | 38957 ft | 484 kts | 148° |
| 2026-04-10 01:28 | -12.55017 | -66.29972 | 38959 ft | 483 kts | 148° |
| 2026-04-10 01:29 | -12.60819 | -66.26473 | 38959 ft | 483 kts | 148° |
| 2026-04-10 01:29 | -12.66626 | -66.22970 | 38962 ft | 483 kts | 148° |
| 2026-04-10 01:30 | -12.72436 | -66.19463 | 38964 ft | 484 kts | 148° |
| 2026-04-10 01:30 | -12.78261 | -66.15945 | 38962 ft | 483 kts | 148° |
| 2026-04-10 01:31 | -12.84038 | -66.12454 | 38958 ft | 482 kts | 148° |
| 2026-04-10 01:31 | -12.89822 | -66.08958 | 38959 ft | 482 kts | 148° |
| 2026-04-10 01:32 | -12.95649 | -66.05432 | 38959 ft | 482 kts | 148° |
| 2026-04-10 01:32 | -13.01414 | -66.01942 | 38960 ft | 483 kts | 148° |
| 2026-04-10 01:33 | -13.07215 | -65.98430 | 38957 ft | 484 kts | 148° |
| 2026-04-10 01:33 | -13.13052 | -65.94894 | 38955 ft | 484 kts | 148° |
| 2026-04-10 01:34 | -13.18838 | -65.91385 | 38946 ft | 482 kts | 148° |
| 2026-04-10 01:34 | -13.24649 | -65.87860 | 38945 ft | 483 kts | 148° |
| 2026-04-10 01:35 | -13.30455 | -65.84336 | 38948 ft | 483 kts | 149° |
| 2026-04-10 01:35 | -13.36271 | -65.80804 | 38946 ft | 484 kts | 148° |
| 2026-04-10 01:36 | -13.42052 | -65.77292 | 38945 ft | 484 kts | 148° |
| 2026-04-10 01:36 | -13.47867 | -65.73756 | 38947 ft | 485 kts | 148° |
| 2026-04-10 01:37 | -13.53693 | -65.70213 | 38953 ft | 485 kts | 149° |
| 2026-04-10 01:37 | -13.59539 | -65.66654 | 38952 ft | 486 kts | 148° |
| 2026-04-10 01:38 | -13.65358 | -65.63110 | 38955 ft | 485 kts | 149° |
| 2026-04-10 01:38 | -13.71173 | -65.59566 | 38952 ft | 485 kts | 148° |
| 2026-04-10 01:39 | -13.76971 | -65.56032 | 38955 ft | 485 kts | 148° |
| 2026-04-10 01:39 | -13.82800 | -65.52476 | 38955 ft | 486 kts | 148° |
| 2026-04-10 01:40 | -13.88644 | -65.48908 | 38955 ft | 486 kts | 148° |
| 2026-04-10 01:40 | -13.94483 | -65.45342 | 38954 ft | 486 kts | 148° |
| 2026-04-10 01:41 | -14.00296 | -65.41788 | 38952 ft | 487 kts | 149° |
| 2026-04-10 01:41 | -14.06134 | -65.38219 | 38954 ft | 486 kts | 149° |
| 2026-04-10 01:42 | -14.11999 | -65.34671 | 38956 ft | 485 kts | 149° |
| 2026-04-10 01:42 | -14.17862 | -65.31159 | 38955 ft | 486 kts | 149° |
| 2026-04-10 01:43 | -14.23740 | -65.27634 | 38968 ft | 488 kts | 149° |
| 2026-04-10 01:43 | -14.29629 | -65.24098 | 38966 ft | 488 kts | 149° |
| 2026-04-10 01:44 | -14.35553 | -65.20538 | 38969 ft | 489 kts | 149° |
| 2026-04-10 01:44 | -14.41434 | -65.17002 | 38969 ft | 489 kts | 149° |
| 2026-04-10 01:45 | -14.47336 | -65.13451 | 38969 ft | 489 kts | 149° |
| 2026-04-10 01:45 | -14.53242 | -65.09895 | 38971 ft | 491 kts | 149° |
| 2026-04-10 01:46 | -14.59113 | -65.06357 | 38970 ft | 490 kts | 149° |
| 2026-04-10 01:46 | -14.65008 | -65.02803 | 38965 ft | 491 kts | 149° |
| 2026-04-10 01:47 | -14.70957 | -64.99214 | 38971 ft | 492 kts | 149° |
| 2026-04-10 01:47 | -14.76877 | -64.95640 | 38967 ft | 492 kts | 149° |
| 2026-04-10 01:48 | -14.82792 | -64.92025 | 38967 ft | 492 kts | 148° |
| 2026-04-10 01:48 | -14.88634 | -64.88332 | 38968 ft | 492 kts | 148° |
| 2026-04-10 01:49 | -14.94513 | -64.84618 | 38971 ft | 493 kts | 148° |
| 2026-04-10 01:49 | -15.00369 | -64.80920 | 38975 ft | 492 kts | 148° |
| 2026-04-10 01:50 | -15.06218 | -64.77226 | 38977 ft | 493 kts | 149° |
| 2026-04-10 01:50 | -15.12090 | -64.73517 | 38976 ft | 493 kts | 149° |
| 2026-04-10 01:51 | -15.17949 | -64.69813 | 38976 ft | 494 kts | 149° |
| 2026-04-10 01:51 | -15.23808 | -64.66108 | 38983 ft | 494 kts | 149° |
| 2026-04-10 01:52 | -15.29688 | -64.62386 | 38980 ft | 493 kts | 149° |
| 2026-04-10 01:52 | -15.35554 | -64.58672 | 38982 ft | 494 kts | 149° |
| 2026-04-10 01:53 | -15.41437 | -64.54944 | 38983 ft | 493 kts | 149° |
| 2026-04-10 01:53 | -15.47333 | -64.51205 | 38989 ft | 494 kts | 149° |
| 2026-04-10 01:54 | -15.53160 | -64.47514 | 38987 ft | 494 kts | 149° |
| 2026-04-10 01:54 | -15.59070 | -64.43798 | 38990 ft | 494 kts | 149° |
| 2026-04-10 01:55 | -15.64975 | -64.40084 | 38996 ft | 494 kts | 149° |
| 2026-04-10 01:55 | -15.70823 | -64.36402 | 38998 ft | 494 kts | 149° |
| 2026-04-10 01:56 | -15.76749 | -64.32668 | 38997 ft | 496 kts | 149° |
| 2026-04-10 01:56 | -15.82680 | -64.28928 | 38996 ft | 494 kts | 149° |
| 2026-04-10 01:57 | -15.88583 | -64.25203 | 38998 ft | 496 kts | 149° |
| 2026-04-10 01:57 | -15.94460 | -64.21491 | 39001 ft | 495 kts | 149° |
| 2026-04-10 01:58 | -16.00355 | -64.17766 | 39002 ft | 495 kts | 149° |
| 2026-04-10 01:58 | -16.06259 | -64.14032 | 39005 ft | 495 kts | 149° |
| 2026-04-10 01:59 | -16.12126 | -64.10319 | 39001 ft | 496 kts | 149° |
| 2026-04-10 01:59 | -16.18019 | -64.06587 | 39000 ft | 496 kts | 149° |
| 2026-04-10 02:00 | -16.23954 | -64.02826 | 38999 ft | 498 kts | 149° |
| 2026-04-10 02:00 | -16.29844 | -63.99091 | 39004 ft | 497 kts | 149° |
| 2026-04-10 02:01 | -16.35770 | -63.95330 | 39008 ft | 498 kts | 149° |
| 2026-04-10 02:01 | -16.41707 | -63.91559 | 39007 ft | 498 kts | 149° |
| 2026-04-10 02:02 | -16.47623 | -63.87799 | 39005 ft | 499 kts | 149° |
| 2026-04-10 02:02 | -16.53538 | -63.84058 | 39003 ft | 496 kts | 150° |
| 2026-04-10 02:03 | -16.59480 | -63.80311 | 39011 ft | 500 kts | 150° |
| 2026-04-10 02:03 | -16.65451 | -63.76541 | 39010 ft | 498 kts | 150° |
| 2026-04-10 02:04 | -16.71389 | -63.72788 | 39013 ft | 499 kts | 150° |
| 2026-04-10 02:04 | -16.77342 | -63.69024 | 39021 ft | 500 kts | 150° |
| 2026-04-10 02:05 | -16.83322 | -63.65239 | 39023 ft | 499 kts | 150° |
| 2026-04-10 02:05 | -16.89260 | -63.61476 | 39029 ft | 499 kts | 150° |
| 2026-04-10 02:06 | -16.95226 | -63.57695 | 39032 ft | 500 kts | 150° |
| 2026-04-10 02:06 | -17.01179 | -63.53918 | 39040 ft | 499 kts | 150° |
| 2026-04-10 02:07 | -17.07162 | -63.50120 | 39032 ft | 499 kts | 150° |
| 2026-04-10 02:07 | -17.13120 | -63.46334 | 39040 ft | 499 kts | 150° |
| 2026-04-10 02:08 | -17.19065 | -63.42554 | 39043 ft | 499 kts | 150° |
| 2026-04-10 02:08 | -17.25012 | -63.38770 | 39049 ft | 499 kts | 150° |
| 2026-04-10 02:09 | -17.30921 | -63.35007 | 39056 ft | 499 kts | 150° |
| 2026-04-10 02:09 | -17.36896 | -63.31199 | 39049 ft | 499 kts | 150° |
| 2026-04-10 02:10 | -17.42809 | -63.27427 | 39063 ft | 499 kts | 150° |
| 2026-04-10 02:10 | -17.48783 | -63.23615 | 39064 ft | 499 kts | 150° |
| 2026-04-10 02:11 | -17.54705 | -63.19831 | 39067 ft | 498 kts | 150° |
| 2026-04-10 02:11 | -17.60665 | -63.16021 | 39069 ft | 499 kts | 150° |
| 2026-04-10 02:12 | -17.66538 | -63.12081 | 39075 ft | 500 kts | 148° |
| 2026-04-10 02:12 | -17.72277 | -63.07962 | 39074 ft | 501 kts | 147° |
| 2026-04-10 02:13 | -17.78028 | -63.03846 | 39073 ft | 500 kts | 148° |
| 2026-04-10 02:13 | -17.83792 | -62.99730 | 39072 ft | 500 kts | 148° |
| 2026-04-10 02:14 | -17.89564 | -62.95611 | 39084 ft | 499 kts | 148° |
| 2026-04-10 02:14 | -17.95332 | -62.91495 | 39070 ft | 499 kts | 148° |
| 2026-04-10 02:15 | -18.01047 | -62.87414 | 39077 ft | 498 kts | 148° |
| 2026-04-10 02:15 | -18.06790 | -62.83312 | 39067 ft | 499 kts | 148° |
| 2026-04-10 02:16 | -18.12550 | -62.79195 | 39067 ft | 500 kts | 148° |
| 2026-04-10 02:16 | -18.18299 | -62.75082 | 39068 ft | 499 kts | 148° |
| 2026-04-10 02:17 | -18.26952 | -62.68886 | 39060 ft | 500 kts | 148° |
| 2026-04-10 02:17 | -18.32729 | -62.64745 | 39071 ft | 500 kts | 148° |
| 2026-04-10 02:18 | -18.38463 | -62.60632 | 39073 ft | 500 kts | 148° |
| 2026-04-10 02:18 | -18.44227 | -62.56494 | 39073 ft | 500 kts | 148° |
| 2026-04-10 02:19 | -18.49982 | -62.52359 | 39072 ft | 499 kts | 148° |
| 2026-04-10 02:19 | -18.55765 | -62.48200 | 39069 ft | 500 kts | 148° |
| 2026-04-10 02:20 | -18.61517 | -62.44060 | 39067 ft | 498 kts | 148° |
| 2026-04-10 02:20 | -18.67262 | -62.39922 | 39068 ft | 500 kts | 148° |
| 2026-04-10 02:21 | -18.72993 | -62.35790 | 39067 ft | 498 kts | 148° |
| 2026-04-10 02:21 | -18.78783 | -62.31662 | 39057 ft | 500 kts | 148° |
| 2026-04-10 02:22 | -18.84540 | -62.27569 | 39063 ft | 500 kts | 148° |
| 2026-04-10 02:22 | -18.90301 | -62.23468 | 39058 ft | 498 kts | 149° |
| 2026-04-10 02:23 | -18.96052 | -62.19369 | 39063 ft | 498 kts | 149° |
| 2026-04-10 02:23 | -19.01819 | -62.15255 | 39055 ft | 497 kts | 148° |
| 2026-04-10 02:24 | -19.07583 | -62.11140 | 39059 ft | 499 kts | 149° |
| 2026-04-10 02:24 | -19.13342 | -62.07024 | 39056 ft | 498 kts | 149° |
| 2026-04-10 02:25 | -19.19104 | -62.02904 | 39053 ft | 502 kts | 149° |
| 2026-04-10 02:25 | -19.24887 | -61.98763 | 39057 ft | 499 kts | 149° |
| 2026-04-10 02:26 | -19.30660 | -61.94627 | 39058 ft | 501 kts | 149° |
| 2026-04-10 02:26 | -19.36456 | -61.90469 | 39059 ft | 500 kts | 149° |
| 2026-04-10 02:27 | -19.42241 | -61.86318 | 39067 ft | 502 kts | 149° |
| 2026-04-10 02:27 | -19.47989 | -61.82187 | 39066 ft | 501 kts | 149° |
| 2026-04-10 02:28 | -19.53808 | -61.78003 | 39066 ft | 501 kts | 149° |
| 2026-04-10 02:28 | -19.59566 | -61.73860 | 39068 ft | 503 kts | 149° |
| 2026-04-10 02:29 | -19.65407 | -61.69699 | 39065 ft | 501 kts | 150° |
| 2026-04-10 02:29 | -19.71249 | -61.65701 | 39061 ft | 501 kts | 151° |
| 2026-04-10 02:30 | -19.77152 | -61.61654 | 39064 ft | 501 kts | 151° |
| 2026-04-10 02:30 | -19.83010 | -61.57629 | 39062 ft | 502 kts | 151° |
| 2026-04-10 02:31 | -19.88862 | -61.53601 | 39064 ft | 499 kts | 151° |
| 2026-04-10 02:31 | -19.94708 | -61.49573 | 39063 ft | 499 kts | 151° |
| 2026-04-10 02:32 | -20.00555 | -61.45540 | 39069 ft | 500 kts | 151° |
| 2026-04-10 02:32 | -20.06394 | -61.41507 | 39070 ft | 500 kts | 151° |
| 2026-04-10 02:33 | -20.12239 | -61.37468 | 39064 ft | 499 kts | 151° |
| 2026-04-10 02:33 | -20.18047 | -61.33450 | 39048 ft | 501 kts | 151° |
| 2026-04-10 02:34 | -20.23924 | -61.29379 | 39054 ft | 500 kts | 151° |
| 2026-04-10 02:34 | -20.29753 | -61.25338 | 39048 ft | 500 kts | 151° |
| 2026-04-10 02:35 | -20.35585 | -61.21292 | 39050 ft | 501 kts | 151° |
| 2026-04-10 02:35 | -20.41446 | -61.17223 | 39048 ft | 503 kts | 151° |
| 2026-04-10 02:36 | -20.47349 | -61.13119 | 39047 ft | 502 kts | 151° |
| 2026-04-10 02:36 | -20.53190 | -61.09055 | 39051 ft | 502 kts | 151° |
| 2026-04-10 02:37 | -20.59065 | -61.04965 | 39048 ft | 503 kts | 151° |
| 2026-04-10 02:37 | -20.64908 | -61.00892 | 39048 ft | 504 kts | 151° |
| 2026-04-10 02:38 | -20.70816 | -60.96771 | 39048 ft | 506 kts | 150° |
| 2026-04-10 02:38 | -20.76712 | -60.92652 | 39045 ft | 504 kts | 151° |
| 2026-04-10 02:39 | -20.82614 | -60.88527 | 39043 ft | 506 kts | 150° |
| 2026-04-10 02:39 | -20.88486 | -60.84419 | 39043 ft | 505 kts | 150° |
| 2026-04-10 02:40 | -20.94356 | -60.80308 | 39040 ft | 505 kts | 151° |
| 2026-04-10 02:40 | -21.00290 | -60.76149 | 39032 ft | 510 kts | 151° |
| 2026-04-10 02:41 | -21.06213 | -60.71992 | 39029 ft | 506 kts | 151° |
| 2026-04-10 02:41 | -21.12022 | -60.67687 | 39027 ft | 510 kts | 148° |
| 2026-04-10 02:42 | -21.17717 | -60.63165 | 39023 ft | 510 kts | 148° |
| 2026-04-10 02:42 | -21.23463 | -60.58616 | 39028 ft | 510 kts | 148° |
| 2026-04-10 02:43 | -21.29193 | -60.54088 | 39022 ft | 510 kts | 149° |
| 2026-04-10 02:43 | -21.34900 | -60.49582 | 39028 ft | 510 kts | 149° |
| 2026-04-10 02:44 | -21.40615 | -60.45068 | 39027 ft | 508 kts | 149° |
| 2026-04-10 02:44 | -21.46301 | -60.40577 | 39026 ft | 511 kts | 149° |
| 2026-04-10 02:45 | -21.52025 | -60.36050 | 39027 ft | 508 kts | 149° |
| 2026-04-10 02:45 | -21.57730 | -60.31536 | 39018 ft | 510 kts | 149° |
| 2026-04-10 02:46 | -21.63450 | -60.27005 | 39015 ft | 509 kts | 149° |
| 2026-04-10 02:46 | -21.69172 | -60.22469 | 39012 ft | 512 kts | 149° |
| 2026-04-10 02:47 | -21.74884 | -60.17934 | 39016 ft | 508 kts | 150° |
| 2026-04-10 02:47 | -21.80605 | -60.13390 | 39015 ft | 510 kts | 150° |
| 2026-04-10 02:48 | -21.86338 | -60.08830 | 39014 ft | 509 kts | 150° |
| 2026-04-10 02:48 | -21.92000 | -60.04324 | 39015 ft | 511 kts | 150° |
| 2026-04-10 02:49 | -21.97715 | -59.99770 | 39020 ft | 510 kts | 150° |
| 2026-04-10 02:49 | -22.03446 | -59.95199 | 39012 ft | 512 kts | 150° |
| 2026-04-10 02:50 | -22.09168 | -59.90630 | 39020 ft | 510 kts | 150° |
| 2026-04-10 02:50 | -22.14873 | -59.86069 | 39018 ft | 509 kts | 150° |
| 2026-04-10 02:51 | -22.20615 | -59.81475 | 39016 ft | 511 kts | 150° |
| 2026-04-10 02:51 | -22.26311 | -59.76911 | 39026 ft | 510 kts | 150° |
| 2026-04-10 02:52 | -22.32000 | -59.72350 | 39025 ft | 509 kts | 150° |
| 2026-04-10 02:52 | -22.37704 | -59.67773 | 39025 ft | 511 kts | 151° |
| 2026-04-10 02:53 | -22.43397 | -59.63205 | 39025 ft | 509 kts | 151° |
| 2026-04-10 02:53 | -22.49095 | -59.58630 | 39027 ft | 510 kts | 151° |
| 2026-04-10 02:54 | -22.54791 | -59.54052 | 39026 ft | 510 kts | 151° |
| 2026-04-10 02:54 | -22.60518 | -59.49444 | 39036 ft | 511 kts | 151° |
| 2026-04-10 02:55 | -22.66194 | -59.44871 | 39029 ft | 509 kts | 151° |
| 2026-04-10 02:55 | -22.71904 | -59.40268 | 39040 ft | 513 kts | 152° |
| 2026-04-10 02:56 | -22.77596 | -59.35670 | 39034 ft | 507 kts | 152° |
| 2026-04-10 02:56 | -22.83273 | -59.31085 | 39016 ft | 510 kts | 151° |
| 2026-04-10 02:57 | -22.88982 | -59.26467 | 39016 ft | 511 kts | 151° |
| 2026-04-10 02:57 | -22.94705 | -59.21831 | 39027 ft | 511 kts | 151° |
| 2026-04-10 02:58 | -23.00385 | -59.17226 | 39025 ft | 512 kts | 152° |
| 2026-04-10 02:58 | -23.06104 | -59.12584 | 39030 ft | 511 kts | 151° |
| 2026-04-10 02:59 | -23.11804 | -59.07954 | 39034 ft | 514 kts | 152° |
| 2026-04-10 03:00 | -23.20399 | -59.00961 | 39035 ft | 512 kts | 152° |
| 2026-04-10 03:00 | -23.26106 | -58.96312 | 39039 ft | 513 kts | 152° |
| 2026-04-10 03:01 | -23.31836 | -58.91639 | 39045 ft | 513 kts | 152° |
| 2026-04-10 03:01 | -23.37536 | -58.86983 | 39046 ft | 512 kts | 151° |
| 2026-04-10 03:02 | -23.43260 | -58.82305 | 39045 ft | 513 kts | 152° |
| 2026-04-10 03:02 | -23.48964 | -58.77637 | 39044 ft | 514 kts | 152° |
| 2026-04-10 03:03 | -23.54688 | -58.72948 | 39047 ft | 515 kts | 152° |
| 2026-04-10 03:03 | -23.60296 | -58.68339 | 38326 ft | 501 kts | 152° |
| 2026-04-10 03:03 | -23.63091 | -58.66050 | 36990 ft | 511 kts | 152° |
| 2026-04-10 03:04 | -23.65960 | -58.63699 | 35765 ft | 517 kts | 151° |
| 2026-04-10 03:04 | -23.68835 | -58.61339 | 34734 ft | 519 kts | 151° |
| 2026-04-10 03:04 | -23.71709 | -58.58975 | 33863 ft | 517 kts | 150° |
| 2026-04-10 03:04 | -23.74572 | -58.56618 | 32957 ft | 517 kts | 150° |
| 2026-04-10 03:05 | -23.77449 | -58.54250 | 32052 ft | 518 kts | 150° |
| 2026-04-10 03:05 | -23.80326 | -58.51881 | 31056 ft | 521 kts | 149° |
| 2026-04-10 03:05 | -23.83208 | -58.49507 | 30201 ft | 520 kts | 149° |
| 2026-04-10 03:05 | -23.86070 | -58.47158 | 29663 ft | 512 kts | 149° |
| 2026-04-10 03:06 | -23.88888 | -58.44851 | 29194 ft | 504 kts | 149° |
| 2026-04-10 03:06 | -23.91709 | -58.42542 | 28617 ft | 498 kts | 148° |
| 2026-04-10 03:06 | -23.94477 | -58.40276 | 27963 ft | 495 kts | 148° |
| 2026-04-10 03:06 | -23.97223 | -58.38027 | 27327 ft | 492 kts | 148° |
| 2026-04-10 03:07 | -23.99924 | -58.35812 | 26775 ft | 486 kts | 148° |
| 2026-04-10 03:07 | -24.02651 | -58.33575 | 26183 ft | 482 kts | 148° |
| 2026-04-10 03:07 | -24.05318 | -58.31386 | 25518 ft | 479 kts | 148° |
| 2026-04-10 03:07 | -24.07957 | -58.29219 | 24892 ft | 475 kts | 147° |
| 2026-04-10 03:08 | -24.10617 | -58.27033 | 24316 ft | 469 kts | 147° |
| 2026-04-10 03:08 | -24.15818 | -58.22756 | 23203 ft | 459 kts | 147° |
| 2026-04-10 03:08 | -24.18352 | -58.20671 | 22615 ft | 455 kts | 147° |
| 2026-04-10 03:09 | -24.20872 | -58.18596 | 22018 ft | 452 kts | 147° |
| 2026-04-10 03:09 | -24.23371 | -58.16537 | 21397 ft | 448 kts | 147° |
| 2026-04-10 03:09 | -24.25856 | -58.14489 | 20794 ft | 445 kts | 147° |
| 2026-04-10 03:09 | -24.28341 | -58.12441 | 20192 ft | 442 kts | 146° |
| 2026-04-10 03:10 | -24.30782 | -58.10427 | 19573 ft | 439 kts | 146° |
| 2026-04-10 03:10 | -24.33216 | -58.08418 | 18972 ft | 436 kts | 146° |
| 2026-04-10 03:10 | -24.35629 | -58.06425 | 18380 ft | 432 kts | 146° |
| 2026-04-10 03:10 | -24.38028 | -58.04443 | 17793 ft | 429 kts | 146° |
| 2026-04-10 03:11 | -24.40398 | -58.02484 | 17224 ft | 425 kts | 146° |
| 2026-04-10 03:11 | -24.42738 | -58.00548 | 16685 ft | 421 kts | 146° |
| 2026-04-10 03:11 | -24.45065 | -57.98623 | 16224 ft | 414 kts | 145° |
| 2026-04-10 03:11 | -24.47338 | -57.96740 | 16109 ft | 398 kts | 145° |
| 2026-04-10 03:12 | -24.49495 | -57.94952 | 16098 ft | 380 kts | 145° |
| 2026-04-10 03:12 | -24.51594 | -57.93265 | 16086 ft | 362 kts | 149° |
| 2026-04-10 03:12 | -24.53664 | -57.91792 | 16085 ft | 346 kts | 150° |
| 2026-04-10 03:12 | -24.55655 | -57.90391 | 16079 ft | 332 kts | 150° |
| 2026-04-10 03:13 | -24.57575 | -57.89033 | 15955 ft | 323 kts | 150° |
| 2026-04-10 03:13 | -24.59459 | -57.87689 | 15623 ft | 322 kts | 150° |
| 2026-04-10 03:13 | -24.61348 | -57.86333 | 15258 ft | 322 kts | 150° |
| 2026-04-10 03:13 | -24.63216 | -57.84987 | 14950 ft | 320 kts | 149° |
| 2026-04-10 03:14 | -24.65097 | -57.83630 | 14621 ft | 319 kts | 149° |
| 2026-04-10 03:14 | -24.66940 | -57.82299 | 14315 ft | 317 kts | 149° |
| 2026-04-10 03:14 | -24.68791 | -57.80963 | 14012 ft | 315 kts | 149° |
| 2026-04-10 03:14 | -24.70643 | -57.79625 | 13688 ft | 314 kts | 149° |
| 2026-04-10 03:15 | -24.72468 | -57.78305 | 13409 ft | 312 kts | 149° |
| 2026-04-10 03:15 | -24.74274 | -57.77000 | 13131 ft | 309 kts | 148° |
| 2026-04-10 03:15 | -24.76072 | -57.75700 | 12846 ft | 307 kts | 148° |
| 2026-04-10 03:15 | -24.77845 | -57.74417 | 12573 ft | 305 kts | 148° |
| 2026-04-10 03:16 | -24.79613 | -57.73137 | 12307 ft | 302 kts | 148° |
| 2026-04-10 03:16 | -24.81387 | -57.71853 | 12016 ft | 301 kts | 148° |
| 2026-04-10 03:16 | -24.83119 | -57.70599 | 11717 ft | 300 kts | 148° |
| 2026-04-10 03:16 | -24.84854 | -57.69342 | 11443 ft | 297 kts | 148° |
| 2026-04-10 03:17 | -24.86589 | -57.68084 | 11137 ft | 296 kts | 147° |
| 2026-04-10 03:17 | -24.88304 | -57.66841 | 10876 ft | 294 kts | 147° |
| 2026-04-10 03:17 | -24.90013 | -57.65601 | 10574 ft | 293 kts | 147° |
| 2026-04-10 03:17 | -24.91724 | -57.64360 | 10308 ft | 290 kts | 147° |
| 2026-04-10 03:18 | -24.93397 | -57.63146 | 10062 ft | 287 kts | 147° |
| 2026-04-10 03:18 | -24.95078 | -57.61926 | 9606 ft | 293 kts | 146° |
| 2026-04-10 03:18 | -24.96801 | -57.60674 | 8728 ft | 304 kts | 146° |
| 2026-04-10 03:18 | -24.98599 | -57.59367 | 7820 ft | 311 kts | 145° |
| 2026-04-10 03:19 | -25.00173 | -57.57785 | 6911 ft | 315 kts | 127° |
| 2026-04-10 03:19 | -25.01443 | -57.55792 | 5960 ft | 318 kts | 122° |
| 2026-04-10 03:19 | -25.02618 | -57.53760 | 5017 ft | 319 kts | 122° |
| 2026-04-10 03:19 | -25.03801 | -57.51699 | 4062 ft | 318 kts | 122° |
| 2026-04-10 03:20 | -25.05235 | -57.49849 | 3123 ft | 315 kts | 143° |
| 2026-04-10 03:20 | -25.07136 | -57.48854 | 2602 ft | 300 kts | 167° |
| 2026-04-10 03:20 | -25.09160 | -57.48695 | 2271 ft | 282 kts | 181° |
| 2026-04-10 03:20 | -25.11018 | -57.48909 | 2024 ft | 251 kts | 186° |
| 2026-04-10 03:21 | -25.12690 | -57.49216 | 1908 ft | 222 kts | 188° |
| 2026-04-10 03:21 | -25.14085 | -57.49528 | 1875 ft | 189 kts | 189° |
| 2026-04-10 03:21 | -25.15323 | -57.49835 | 1755 ft | 177 kts | 188° |
| 2026-04-10 03:21 | -25.16463 | -57.50107 | 1558 ft | 159 kts | 188° |
| 2026-04-10 03:22 | -25.17530 | -57.50363 | 1346 ft | 151 kts | 188° |
| 2026-04-10 03:22 | -25.18549 | -57.50608 | 1144 ft | 148 kts | 189° |
| 2026-04-10 03:22 | -25.19562 | -57.50853 | 932 ft | 148 kts | 189° |
| 2026-04-10 03:22 | -25.20560 | -57.51094 | 728 ft | 146 kts | 190° |
| 2026-04-10 03:23 | -25.21558 | -57.51334 | 532 ft | 144 kts | 191° |
| 2026-04-10 03:23 | -25.22533 | -57.51558 | 350 ft | 143 kts | 191° |
| 2026-04-10 03:23 | -25.23441 | -57.51774 | 306 ft | 113 kts | 192° |
| 2026-04-10 03:23 | -25.24064 | -57.51931 | 306 ft | 69 kts | 193° |
| 2026-04-10 03:24 | -25.24395 | -57.52013 | 306 ft | 35 kts | 194° |
| 2026-04-10 03:24 | -25.24633 | -57.52073 | 306 ft | 34 kts | 192° |
| 2026-04-10 03:24 | -25.24865 | -57.52128 | 306 ft | 34 kts | 192° |
| 2026-04-10 03:24 | -25.25100 | -57.52184 | 306 ft | 34 kts | 192° |
| 2026-04-10 03:25 | -25.25307 | -57.52234 | 306 ft | 21 kts | 192° |
| 2026-04-10 03:25 | -25.25400 | -57.52253 | 306 ft | 8 kts | 182° |
| 2026-04-10 03:25 | -25.25452 | -57.52211 | 306 ft | 11 kts | 121° |
| 2026-04-10 03:25 | -25.25481 | -57.52117 | 306 ft | 14 kts | 90° |
| 2026-04-10 03:26 | -25.25412 | -57.52045 | 306 ft | 16 kts | 11° |
| 2026-04-10 03:26 | -25.25291 | -57.52014 | 306 ft | 18 kts | 13° |
| 2026-04-10 03:26 | -25.25155 | -57.51981 | 306 ft | 21 kts | 13° |
| 2026-04-10 03:26 | -25.25003 | -57.51944 | 306 ft | 23 kts | 12° |
| 2026-04-10 03:27 | -25.24849 | -57.51907 | 306 ft | 22 kts | 12° |
| 2026-04-10 03:27 | -25.24690 | -57.51868 | 306 ft | 21 kts | 13° |
| 2026-04-10 03:27 | -25.24570 | -57.51839 | 306 ft | 17 kts | 12° |
| 2026-04-10 03:27 | -25.24475 | -57.51815 | 306 ft | 11 kts | 14° |
| 2026-04-10 03:28 | -25.24411 | -57.51784 | 306 ft | 11 kts | 48° |
| 2026-04-10 03:28 | -25.24367 | -57.51713 | 306 ft | 7 kts | 57° |
| 2026-04-10 03:28 | -25.24343 | -57.51665 | 306 ft | 6 kts | 79° |
| 2026-04-10 03:28 | -25.24375 | -57.51620 | 306 ft | 9 kts | 165° |
| 2026-04-10 03:29 | -25.24419 | -57.51608 | 306 ft | 6 kts | 164° |
| 2026-04-10 03:29 | -25.24428 | -57.51604 | 306 ft | 1 kts | 160° |
| 2026-04-10 03:29 | -25.24432 | -57.51599 | 306 ft | 0 kts | 122° |
| 2026-04-10 03:29 | -25.24433 | -57.51596 | 306 ft | 0 kts | 100° |
| 2026-04-10 03:30 | -25.24430 | -57.51587 | 306 ft | 2 kts | 47° |
| 2026-04-10 03:30 | -25.24416 | -57.51587 | 306 ft | 0 kts | 341° |